DLH561 FNBJ-EDDF
Flight info
| Callsign | DLH561 |
|---|---|
| Flight time | N/A |
| Altitude | 36000 |
| Route | VNA UR526 LIKAD UY339 MESIN UG861 DLA UA604 AS UR978 BOD UG362 EBA UG869 MAKEB UM858 DOPEL DCT DEC DCT UPDUT DCT CORSI DCT OKROK DCT AKUTI DCT TORTU DCT ERTEV DCT PEPAG DCT ABESI DCT LADOL T163 EMPAX EMPAX5D |
| Aircraft | A343/H-SDE2E3FGHIJ4J5M1RWXY/LB1D1 |
Departure
| Time | 2026-04-28 19:34 |
|---|---|
| Airport | Dr. Antonio Agostinho Neto International Airport (FNBJ) |
Arrival
| Time | N/A |
|---|---|
| Airport | Frankfurt Main Airport (EDDF) |
| Time | Latitude | Longitude | Altitude | Speed | Heading |
|---|---|---|---|---|---|
| 2026-04-28 19:26 | -9.05050 | 13.49338 | 544 ft | 2 kts | 81° |
| 2026-04-28 19:26 | -9.05053 | 13.49322 | 545 ft | 2 kts | 81° |
| 2026-04-28 19:26 | -9.05054 | 13.49314 | 541 ft | 2 kts | 81° |
| 2026-04-28 19:26 | -9.05056 | 13.49299 | 541 ft | 2 kts | 81° |
| 2026-04-28 19:27 | -9.05059 | 13.49282 | 541 ft | 2 kts | 81° |
| 2026-04-28 19:27 | -9.05061 | 13.49266 | 541 ft | 2 kts | 81° |
| 2026-04-28 19:27 | -9.05064 | 13.49248 | 545 ft | 2 kts | 81° |
| 2026-04-28 19:27 | -9.05066 | 13.49251 | 545 ft | 1 kts | 100° |
| 2026-04-28 19:28 | -9.05093 | 13.49278 | 541 ft | 13 kts | 135° |
| 2026-04-28 19:28 | -9.05183 | 13.49352 | 541 ft | 19 kts | 142° |
| 2026-04-28 19:28 | -9.05297 | 13.49440 | 541 ft | 23 kts | 142° |
| 2026-04-28 19:28 | -9.05431 | 13.49543 | 541 ft | 25 kts | 143° |
| 2026-04-28 19:29 | -9.05527 | 13.49615 | 541 ft | 27 kts | 143° |
| 2026-04-28 19:29 | -9.05630 | 13.49693 | 541 ft | 27 kts | 143° |
| 2026-04-28 19:29 | -9.05819 | 13.49838 | 544 ft | 25 kts | 144° |
| 2026-04-28 19:29 | -9.05955 | 13.49940 | 542 ft | 24 kts | 142° |
| 2026-04-28 19:30 | -9.06026 | 13.50059 | 543 ft | 19 kts | 67° |
| 2026-04-28 19:30 | -9.05958 | 13.50182 | 544 ft | 21 kts | 54° |
| 2026-04-28 19:30 | -9.05871 | 13.50302 | 544 ft | 22 kts | 53° |
| 2026-04-28 19:30 | -9.05775 | 13.50432 | 545 ft | 24 kts | 52° |
| 2026-04-28 19:31 | -9.05687 | 13.50573 | 546 ft | 23 kts | 67° |
| 2026-04-28 19:31 | -9.05587 | 13.50701 | 547 ft | 23 kts | 53° |
| 2026-04-28 19:31 | -9.05488 | 13.50833 | 547 ft | 24 kts | 60° |
| 2026-04-28 19:31 | -9.05465 | 13.50932 | 549 ft | 17 kts | 54° |
| 2026-04-28 19:32 | -9.05381 | 13.51021 | 548 ft | 20 kts | 43° |
| 2026-04-28 19:32 | -9.05224 | 13.51179 | 546 ft | 29 kts | 48° |
| 2026-04-28 19:32 | -9.05134 | 13.51296 | 547 ft | 33 kts | 53° |
| 2026-04-28 19:32 | -9.04989 | 13.51496 | 548 ft | 37 kts | 52° |
| 2026-04-28 19:33 | -9.04850 | 13.51701 | 556 ft | 33 kts | 67° |
| 2026-04-28 19:33 | -9.04867 | 13.51894 | 567 ft | 25 kts | 138° |
| 2026-04-28 19:33 | -9.05000 | 13.51870 | 565 ft | 22 kts | 229° |
| 2026-04-28 19:33 | -9.05240 | 13.51531 | 557 ft | 92 kts | 235° |
| 2026-04-28 19:34 | -9.05713 | 13.50834 | 567 ft | 144 kts | 234° |
| 2026-04-28 19:34 | -9.06348 | 13.49923 | 687 ft | 171 kts | 234° |
| 2026-04-28 19:34 | -9.07023 | 13.48930 | 1385 ft | 170 kts | 234° |
| 2026-04-28 19:34 | -9.07656 | 13.47986 | 1665 ft | 161 kts | 234° |
| 2026-04-28 19:35 | -9.08000 | 13.46939 | 1660 ft | 166 kts | 275° |
| 2026-04-28 19:35 | -9.07392 | 13.45991 | 1742 ft | 173 kts | 330° |
| 2026-04-28 19:35 | -9.06294 | 13.45450 | 2219 ft | 179 kts | 327° |
| 2026-04-28 19:35 | -9.05305 | 13.44622 | 2602 ft | 189 kts | 315° |
| 2026-04-28 19:36 | -9.04331 | 13.43731 | 3098 ft | 189 kts | 321° |
| 2026-04-28 19:36 | -9.03317 | 13.42941 | 3555 ft | 195 kts | 324° |
| 2026-04-28 19:36 | -9.02289 | 13.42094 | 4306 ft | 193 kts | 317° |
| 2026-04-28 19:36 | -9.01325 | 13.41043 | 4718 ft | 213 kts | 312° |
| 2026-04-28 19:37 | -9.00600 | 13.40208 | 5103 ft | 220 kts | 314° |
| 2026-04-28 19:37 | -8.99896 | 13.39449 | 5555 ft | 223 kts | 317° |
| 2026-04-28 19:37 | -8.98145 | 13.38407 | 6376 ft | 221 kts | 356° |
| 2026-04-28 19:37 | -8.96603 | 13.38304 | 6912 ft | 228 kts | 358° |
| 2026-04-28 19:38 | -8.94971 | 13.37925 | 7147 ft | 255 kts | 335° |
| 2026-04-28 19:38 | -8.93422 | 13.36897 | 7408 ft | 281 kts | 322° |
| 2026-04-28 19:38 | -8.91940 | 13.35505 | 7828 ft | 296 kts | 314° |
| 2026-04-28 19:38 | -8.90674 | 13.33886 | 8769 ft | 295 kts | 304° |
| 2026-04-28 19:39 | -8.89580 | 13.32094 | 9401 ft | 303 kts | 301° |
| 2026-04-28 19:39 | -8.88464 | 13.30289 | 10181 ft | 304 kts | 305° |
| 2026-04-28 19:39 | -8.87282 | 13.28679 | 10785 ft | 307 kts | 308° |
| 2026-04-28 19:39 | -8.86213 | 13.27243 | 11335 ft | 309 kts | 304° |
| 2026-04-28 19:40 | -8.85230 | 13.25767 | 11840 ft | 313 kts | 304° |
| 2026-04-28 19:40 | -8.83675 | 13.24133 | 11920 ft | 337 kts | 328° |
| 2026-04-28 19:40 | -8.81457 | 13.23185 | 12117 ft | 357 kts | 343° |
| 2026-04-28 19:40 | -8.79014 | 13.22475 | 12498 ft | 368 kts | 342° |
| 2026-04-28 19:41 | -8.76662 | 13.21533 | 13511 ft | 363 kts | 334° |
| 2026-04-28 19:41 | -8.74355 | 13.20400 | 13932 ft | 373 kts | 334° |
| 2026-04-28 19:41 | -8.71956 | 13.19381 | 14638 ft | 373 kts | 339° |
| 2026-04-28 19:41 | -8.69505 | 13.18488 | 15187 ft | 377 kts | 339° |
| 2026-04-28 19:42 | -8.67098 | 13.17483 | 15732 ft | 380 kts | 335° |
| 2026-04-28 19:42 | -8.64693 | 13.16367 | 16320 ft | 381 kts | 335° |
| 2026-04-28 19:42 | -8.62225 | 13.15339 | 16893 ft | 384 kts | 339° |
| 2026-04-28 19:42 | -8.60558 | 13.14708 | 17289 ft | 385 kts | 339° |
| 2026-04-28 19:43 | -8.57227 | 13.13332 | 18099 ft | 388 kts | 336° |
| 2026-04-28 19:43 | -8.54748 | 13.12219 | 18652 ft | 391 kts | 336° |
| 2026-04-28 19:43 | -8.52219 | 13.11179 | 19185 ft | 393 kts | 339° |
| 2026-04-28 19:43 | -8.49772 | 13.10219 | 19723 ft | 395 kts | 338° |
| 2026-04-28 19:44 | -8.47226 | 13.09138 | 20240 ft | 398 kts | 336° |
| 2026-04-28 19:44 | -8.44679 | 13.08020 | 20777 ft | 401 kts | 337° |
| 2026-04-28 19:44 | -8.42073 | 13.06953 | 21310 ft | 404 kts | 339° |
| 2026-04-28 19:44 | -8.39449 | 13.05901 | 21855 ft | 407 kts | 338° |
| 2026-04-28 19:45 | -8.36866 | 13.04799 | 22373 ft | 410 kts | 337° |
| 2026-04-28 19:45 | -8.34226 | 13.03662 | 22890 ft | 413 kts | 338° |
| 2026-04-28 19:45 | -8.31547 | 13.02568 | 23410 ft | 416 kts | 339° |
| 2026-04-28 19:45 | -8.28850 | 13.01470 | 23865 ft | 419 kts | 338° |
| 2026-04-28 19:46 | -8.26158 | 13.00321 | 24268 ft | 422 kts | 337° |
| 2026-04-28 19:46 | -8.23444 | 12.99168 | 24686 ft | 425 kts | 338° |
| 2026-04-28 19:46 | -8.20687 | 12.98044 | 25113 ft | 427 kts | 338° |
| 2026-04-28 19:46 | -8.17927 | 12.96906 | 25503 ft | 430 kts | 337° |
| 2026-04-28 19:47 | -8.15467 | 12.95858 | 25849 ft | 432 kts | 336° |
| 2026-04-28 19:47 | -8.12677 | 12.94682 | 26226 ft | 435 kts | 337° |
| 2026-04-28 19:47 | -8.09856 | 12.93530 | 26617 ft | 438 kts | 338° |
| 2026-04-28 19:47 | -8.07029 | 12.92358 | 26998 ft | 441 kts | 337° |
| 2026-04-28 19:48 | -8.04189 | 12.91152 | 27378 ft | 444 kts | 336° |
| 2026-04-28 19:48 | -8.01333 | 12.89960 | 27764 ft | 446 kts | 337° |
| 2026-04-28 19:48 | -7.98446 | 12.88776 | 28137 ft | 449 kts | 337° |
| 2026-04-28 19:48 | -7.95575 | 12.87581 | 28506 ft | 452 kts | 336° |
| 2026-04-28 19:49 | -7.92661 | 12.86350 | 28882 ft | 455 kts | 336° |
| 2026-04-28 19:49 | -7.89720 | 12.85126 | 29256 ft | 458 kts | 337° |
| 2026-04-28 19:49 | -7.86762 | 12.83909 | 29605 ft | 461 kts | 337° |
| 2026-04-28 19:49 | -7.83777 | 12.82664 | 29965 ft | 464 kts | 336° |
| 2026-04-28 19:50 | -7.77773 | 12.80155 | 30626 ft | 468 kts | 337° |
| 2026-04-28 19:50 | -7.74758 | 12.78912 | 30982 ft | 470 kts | 337° |
| 2026-04-28 19:50 | -7.71726 | 12.77646 | 31298 ft | 472 kts | 336° |
| 2026-04-28 19:51 | -7.68681 | 12.76369 | 31626 ft | 474 kts | 336° |
| 2026-04-28 19:51 | -7.65628 | 12.75105 | 31955 ft | 475 kts | 337° |
| 2026-04-28 19:51 | -7.62550 | 12.73833 | 32265 ft | 477 kts | 337° |
| 2026-04-28 19:51 | -7.59473 | 12.72547 | 32585 ft | 479 kts | 337° |
| 2026-04-28 19:52 | -7.56423 | 12.71273 | 32871 ft | 481 kts | 337° |
| 2026-04-28 19:52 | -7.53296 | 12.69981 | 33445 ft | 475 kts | 337° |
| 2026-04-28 19:52 | -7.50282 | 12.68733 | 33886 ft | 475 kts | 337° |
| 2026-04-28 19:53 | -7.44109 | 12.66156 | 34269 ft | 480 kts | 338° |
| 2026-04-28 19:53 | -7.41011 | 12.64877 | 34510 ft | 482 kts | 338° |
| 2026-04-28 19:53 | -7.37865 | 12.63573 | 34734 ft | 484 kts | 338° |
| 2026-04-28 19:53 | -7.34791 | 12.62287 | 34947 ft | 485 kts | 338° |
| 2026-04-28 19:54 | -7.31667 | 12.60989 | 35153 ft | 486 kts | 338° |
| 2026-04-28 19:54 | -7.28521 | 12.59694 | 35357 ft | 488 kts | 338° |
| 2026-04-28 19:54 | -7.25411 | 12.58398 | 35942 ft | 478 kts | 338° |
| 2026-04-28 19:54 | -7.22365 | 12.57123 | 36300 ft | 477 kts | 338° |
| 2026-04-28 19:55 | -7.19266 | 12.55846 | 36290 ft | 483 kts | 339° |
| 2026-04-28 19:55 | -7.12989 | 12.53240 | 36345 ft | 491 kts | 338° |
| 2026-04-28 19:55 | -7.09853 | 12.51931 | 36335 ft | 480 kts | 339° |
| 2026-04-28 19:56 | -7.07448 | 12.50943 | 36303 ft | 468 kts | 339° |
| 2026-04-28 19:57 | -7.06030 | 12.50362 | 36261 ft | 462 kts | 339° |
| 2026-04-28 19:57 | -7.03075 | 12.49137 | 35822 ft | 460 kts | 338° |
| 2026-04-28 19:57 | -7.00142 | 12.47905 | 35825 ft | 447 kts | 338° |
| 2026-04-28 19:57 | -6.97283 | 12.46723 | 35948 ft | 443 kts | 339° |
| 2026-04-28 19:58 | -6.94404 | 12.45545 | 35936 ft | 448 kts | 339° |
| 2026-04-28 19:58 | -6.88605 | 12.43115 | 35941 ft | 456 kts | 338° |
| 2026-04-28 19:59 | -6.82705 | 12.40694 | 35946 ft | 464 kts | 338° |
| 2026-04-28 19:59 | -6.76699 | 12.38177 | 35946 ft | 471 kts | 339° |
| 2026-04-28 20:00 | -6.70607 | 12.35679 | 35933 ft | 473 kts | 338° |
| 2026-04-28 20:00 | -6.64525 | 12.33132 | 35947 ft | 473 kts | 339° |
| 2026-04-28 20:01 | -6.58418 | 12.30627 | 35941 ft | 473 kts | 338° |
| 2026-04-28 20:01 | -6.52373 | 12.28100 | 35949 ft | 473 kts | 339° |
| 2026-04-28 20:02 | -6.46269 | 12.25592 | 35944 ft | 473 kts | 338° |
| 2026-04-28 20:02 | -6.40255 | 12.23087 | 35943 ft | 473 kts | 339° |
| 2026-04-28 20:03 | -6.34149 | 12.20571 | 35941 ft | 475 kts | 338° |
| 2026-04-28 20:03 | -6.28036 | 12.18035 | 35943 ft | 474 kts | 339° |
| 2026-04-28 20:04 | -6.22961 | 12.15945 | 35937 ft | 473 kts | 338° |
| 2026-04-28 20:04 | -6.15888 | 12.13015 | 35935 ft | 473 kts | 339° |
| 2026-04-28 20:05 | -6.09785 | 12.10485 | 35944 ft | 474 kts | 338° |
| 2026-04-28 20:05 | -6.03680 | 12.07973 | 35934 ft | 475 kts | 339° |
| 2026-04-28 20:06 | -5.97569 | 12.05432 | 35935 ft | 475 kts | 339° |
| 2026-04-28 20:06 | -5.91459 | 12.02928 | 35931 ft | 474 kts | 339° |
| 2026-04-28 20:07 | -5.85371 | 12.00389 | 35927 ft | 475 kts | 339° |
| 2026-04-28 20:07 | -5.79240 | 11.97884 | 35908 ft | 476 kts | 339° |
| 2026-04-28 20:08 | -5.73133 | 11.95334 | 35912 ft | 475 kts | 339° |
| 2026-04-28 20:08 | -5.67001 | 11.92834 | 35913 ft | 475 kts | 339° |
| 2026-04-28 20:09 | -5.60887 | 11.90279 | 35903 ft | 476 kts | 339° |
| 2026-04-28 20:09 | -5.54766 | 11.87785 | 35908 ft | 475 kts | 339° |
| 2026-04-28 20:10 | -5.48651 | 11.85232 | 35909 ft | 475 kts | 339° |
| 2026-04-28 20:10 | -5.43553 | 11.83161 | 35903 ft | 476 kts | 339° |
| 2026-04-28 20:11 | -5.36458 | 11.80206 | 35915 ft | 475 kts | 340° |
| 2026-04-28 20:11 | -5.30319 | 11.77701 | 35911 ft | 476 kts | 339° |
| 2026-04-28 20:12 | -5.24196 | 11.75156 | 35905 ft | 477 kts | 340° |
| 2026-04-28 20:12 | -5.18052 | 11.72642 | 35910 ft | 477 kts | 339° |
| 2026-04-28 20:13 | -5.11855 | 11.70293 | 35891 ft | 474 kts | 352° |
| 2026-04-28 20:13 | -5.08588 | 11.70043 | 36050 ft | 469 kts | 360° |
| 2026-04-28 20:13 | -5.05303 | 11.69886 | 35941 ft | 476 kts | 356° |
| 2026-04-28 20:14 | -4.99841 | 11.69324 | 35920 ft | 473 kts | 357° |
| 2026-04-28 20:14 | -4.93335 | 11.69055 | 35923 ft | 473 kts | 358° |
| 2026-04-28 20:15 | -4.86690 | 11.68440 | 35920 ft | 474 kts | 357° |
| 2026-04-28 20:15 | -4.80102 | 11.68129 | 35923 ft | 474 kts | 358° |
| 2026-04-28 20:16 | -4.73527 | 11.67551 | 35917 ft | 474 kts | 357° |
| 2026-04-28 20:16 | -4.66949 | 11.67212 | 35922 ft | 473 kts | 358° |
| 2026-04-28 20:17 | -4.60378 | 11.66660 | 35914 ft | 473 kts | 357° |
| 2026-04-28 20:17 | -4.53811 | 11.66300 | 35920 ft | 472 kts | 358° |
| 2026-04-28 20:18 | -4.47266 | 11.65768 | 35919 ft | 472 kts | 357° |
| 2026-04-28 20:18 | -4.40692 | 11.65393 | 35915 ft | 473 kts | 358° |
| 2026-04-28 20:19 | -4.34131 | 11.64871 | 35929 ft | 473 kts | 357° |
| 2026-04-28 20:19 | -4.27558 | 11.64488 | 35929 ft | 473 kts | 358° |
| 2026-04-28 20:20 | -4.20984 | 11.63976 | 35928 ft | 474 kts | 357° |
| 2026-04-28 20:20 | -4.14375 | 11.63581 | 35930 ft | 474 kts | 358° |
| 2026-04-28 20:21 | -4.07797 | 11.63075 | 35933 ft | 474 kts | 358° |
| 2026-04-28 20:21 | -4.01255 | 11.62680 | 35941 ft | 474 kts | 358° |
| 2026-04-28 20:22 | -3.94628 | 11.62177 | 35930 ft | 474 kts | 358° |
| 2026-04-28 20:22 | -3.88092 | 11.61775 | 35936 ft | 474 kts | 358° |
| 2026-04-28 20:23 | -3.81504 | 11.61283 | 35943 ft | 474 kts | 358° |
| 2026-04-28 20:23 | -3.74929 | 11.60872 | 35942 ft | 473 kts | 358° |
| 2026-04-28 20:24 | -3.68363 | 11.60386 | 35941 ft | 472 kts | 358° |
| 2026-04-28 20:24 | -3.61867 | 11.59413 | 35982 ft | 476 kts | 347° |
| 2026-04-28 20:25 | -3.55438 | 11.57763 | 35964 ft | 476 kts | 349° |
| 2026-04-28 20:25 | -3.48973 | 11.56267 | 35954 ft | 477 kts | 347° |
| 2026-04-28 20:26 | -3.42527 | 11.54624 | 35942 ft | 477 kts | 349° |
| 2026-04-28 20:26 | -3.36054 | 11.53117 | 35949 ft | 478 kts | 347° |
| 2026-04-28 20:27 | -3.29601 | 11.51483 | 35952 ft | 477 kts | 349° |
| 2026-04-28 20:27 | -3.23138 | 11.49969 | 35953 ft | 478 kts | 347° |
| 2026-04-28 20:28 | -3.16671 | 11.48342 | 35945 ft | 478 kts | 349° |
| 2026-04-28 20:28 | -3.10193 | 11.46814 | 35942 ft | 479 kts | 347° |
| 2026-04-28 20:29 | -3.03774 | 11.45209 | 35955 ft | 478 kts | 349° |
| 2026-04-28 20:29 | -2.97293 | 11.43672 | 35947 ft | 479 kts | 348° |
| 2026-04-28 20:30 | -2.90818 | 11.42062 | 35955 ft | 479 kts | 349° |
| 2026-04-28 20:30 | -2.84331 | 11.40515 | 35945 ft | 479 kts | 348° |
| 2026-04-28 20:31 | -2.77852 | 11.38914 | 35955 ft | 479 kts | 349° |
| 2026-04-28 20:31 | -2.71364 | 11.37359 | 35943 ft | 480 kts | 348° |
| 2026-04-28 20:32 | -2.64888 | 11.35767 | 35947 ft | 479 kts | 349° |
| 2026-04-28 20:32 | -2.58400 | 11.34204 | 35956 ft | 479 kts | 348° |
| 2026-04-28 20:33 | -2.51969 | 11.32631 | 35950 ft | 479 kts | 349° |
| 2026-04-28 20:33 | -2.45495 | 11.31063 | 35945 ft | 480 kts | 348° |
| 2026-04-28 20:34 | -2.38999 | 11.29484 | 35955 ft | 480 kts | 349° |
| 2026-04-28 20:34 | -2.32491 | 11.27900 | 35951 ft | 481 kts | 348° |
| 2026-04-28 20:35 | -2.25980 | 11.26325 | 35945 ft | 482 kts | 349° |
| 2026-04-28 20:35 | -2.19499 | 11.24740 | 35949 ft | 482 kts | 348° |
| 2026-04-28 20:36 | -2.12991 | 11.23174 | 35955 ft | 482 kts | 349° |
| 2026-04-28 20:36 | -2.06460 | 11.21569 | 35952 ft | 482 kts | 348° |
| 2026-04-28 20:37 | -1.99929 | 11.20004 | 35953 ft | 482 kts | 349° |
| 2026-04-28 20:37 | -1.93409 | 11.18398 | 35954 ft | 483 kts | 348° |
| 2026-04-28 20:38 | -1.86858 | 11.16832 | 35944 ft | 483 kts | 349° |
| 2026-04-28 20:38 | -1.80336 | 11.15223 | 35957 ft | 483 kts | 349° |
| 2026-04-28 20:39 | -1.73787 | 11.13660 | 35964 ft | 484 kts | 349° |
| 2026-04-28 20:39 | -1.67280 | 11.12052 | 35956 ft | 484 kts | 349° |
| 2026-04-28 20:40 | -1.60690 | 11.10481 | 35961 ft | 483 kts | 349° |
| 2026-04-28 20:40 | -1.54196 | 11.08877 | 35967 ft | 482 kts | 349° |
| 2026-04-28 20:41 | -1.47640 | 11.07314 | 35960 ft | 482 kts | 349° |
| 2026-04-28 20:41 | -1.41137 | 11.05707 | 35964 ft | 481 kts | 349° |
| 2026-04-28 20:42 | -1.34630 | 11.04157 | 35957 ft | 482 kts | 349° |
| 2026-04-28 20:42 | -1.28126 | 11.02549 | 35963 ft | 480 kts | 349° |
| 2026-04-28 20:43 | -1.21623 | 11.01002 | 35956 ft | 481 kts | 349° |
| 2026-04-28 20:43 | -1.15167 | 10.99404 | 35961 ft | 480 kts | 349° |
| 2026-04-28 20:44 | -1.08666 | 10.97856 | 35963 ft | 480 kts | 349° |
| 2026-04-28 20:44 | -1.02176 | 10.96255 | 35965 ft | 480 kts | 349° |
| 2026-04-28 20:45 | -0.95679 | 10.94704 | 35955 ft | 480 kts | 349° |
| 2026-04-28 20:45 | -0.89193 | 10.93106 | 35957 ft | 479 kts | 349° |
| 2026-04-28 20:46 | -0.82702 | 10.91555 | 35961 ft | 479 kts | 349° |
| 2026-04-28 20:46 | -0.76237 | 10.89965 | 35963 ft | 479 kts | 349° |
| 2026-04-28 20:47 | -0.69801 | 10.88423 | 35954 ft | 479 kts | 349° |
| 2026-04-28 20:47 | -0.63265 | 10.86818 | 35964 ft | 479 kts | 349° |
| 2026-04-28 20:48 | -0.56776 | 10.85258 | 35964 ft | 481 kts | 349° |
| 2026-04-28 20:48 | -0.50275 | 10.83668 | 35951 ft | 481 kts | 349° |
| 2026-04-28 20:49 | -0.43767 | 10.82097 | 35954 ft | 481 kts | 349° |
| 2026-04-28 20:49 | -0.37260 | 10.80513 | 35942 ft | 481 kts | 349° |
| 2026-04-28 20:50 | -0.30771 | 10.78939 | 35948 ft | 480 kts | 349° |
| 2026-04-28 20:50 | -0.24273 | 10.77364 | 35956 ft | 480 kts | 349° |
| 2026-04-28 20:51 | -0.17780 | 10.75782 | 35950 ft | 480 kts | 349° |
| 2026-04-28 20:51 | -0.11293 | 10.74217 | 35944 ft | 480 kts | 349° |
| 2026-04-28 20:52 | -0.04806 | 10.72629 | 35952 ft | 480 kts | 349° |
| 2026-04-28 20:52 | 0.01631 | 10.71080 | 35956 ft | 478 kts | 349° |
| 2026-04-28 20:53 | 0.11320 | 10.68713 | 35960 ft | 478 kts | 349° |
| 2026-04-28 20:53 | 0.17844 | 10.67134 | 35958 ft | 479 kts | 349° |
| 2026-04-28 20:54 | 0.24312 | 10.65559 | 35961 ft | 478 kts | 349° |
| 2026-04-28 20:54 | 0.30787 | 10.63985 | 35961 ft | 479 kts | 349° |
| 2026-04-28 20:55 | 0.37273 | 10.62413 | 35973 ft | 479 kts | 349° |
| 2026-04-28 20:55 | 0.43708 | 10.60841 | 35972 ft | 479 kts | 349° |
| 2026-04-28 20:56 | 0.50184 | 10.59278 | 35975 ft | 479 kts | 349° |
| 2026-04-28 20:56 | 0.56666 | 10.57690 | 35968 ft | 480 kts | 349° |
| 2026-04-28 20:57 | 0.63161 | 10.56129 | 35983 ft | 480 kts | 349° |
| 2026-04-28 20:57 | 0.69652 | 10.54534 | 35979 ft | 481 kts | 349° |
| 2026-04-28 20:58 | 0.76154 | 10.52974 | 35986 ft | 480 kts | 349° |
| 2026-04-28 20:58 | 0.81553 | 10.51643 | 35975 ft | 479 kts | 349° |
| 2026-04-28 20:59 | 0.88033 | 10.50089 | 35978 ft | 479 kts | 349° |
| 2026-04-28 20:59 | 0.94506 | 10.48498 | 35985 ft | 479 kts | 349° |
| 2026-04-28 21:00 | 1.00976 | 10.46949 | 35980 ft | 479 kts | 349° |
| 2026-04-28 21:00 | 1.07477 | 10.45355 | 35978 ft | 479 kts | 349° |
| 2026-04-28 21:01 | 1.13953 | 10.43796 | 35974 ft | 479 kts | 349° |
| 2026-04-28 21:01 | 1.20401 | 10.42224 | 35964 ft | 480 kts | 349° |
| 2026-04-28 21:02 | 1.26924 | 10.40646 | 35978 ft | 479 kts | 349° |
| 2026-04-28 21:02 | 1.33361 | 10.39082 | 35976 ft | 479 kts | 349° |
| 2026-04-28 21:03 | 1.39848 | 10.37508 | 35966 ft | 480 kts | 349° |
| 2026-04-28 21:03 | 1.46343 | 10.35934 | 35968 ft | 480 kts | 349° |
| 2026-04-28 21:04 | 1.52830 | 10.34356 | 35959 ft | 480 kts | 349° |
| 2026-04-28 21:04 | 1.59327 | 10.32783 | 35964 ft | 481 kts | 349° |
| 2026-04-28 21:05 | 1.65828 | 10.31201 | 35960 ft | 480 kts | 349° |
| 2026-04-28 21:05 | 1.72321 | 10.29633 | 35956 ft | 480 kts | 349° |
| 2026-04-28 21:06 | 1.78813 | 10.28047 | 35944 ft | 480 kts | 349° |
| 2026-04-28 21:06 | 1.85309 | 10.26480 | 35951 ft | 480 kts | 349° |
| 2026-04-28 21:07 | 1.91713 | 10.24909 | 35947 ft | 480 kts | 349° |
| 2026-04-28 21:07 | 1.98308 | 10.23322 | 35942 ft | 480 kts | 349° |
| 2026-04-28 21:08 | 2.04812 | 10.21723 | 35931 ft | 481 kts | 349° |
| 2026-04-28 21:08 | 2.11221 | 10.20183 | 35939 ft | 481 kts | 349° |
| 2026-04-28 21:09 | 2.17815 | 10.18563 | 35945 ft | 481 kts | 349° |
| 2026-04-28 21:09 | 2.24323 | 10.16995 | 35931 ft | 481 kts | 349° |
| 2026-04-28 21:10 | 2.30816 | 10.15403 | 35939 ft | 481 kts | 349° |
| 2026-04-28 21:10 | 2.37328 | 10.13831 | 35931 ft | 481 kts | 348° |
| 2026-04-28 21:11 | 2.43835 | 10.12239 | 35932 ft | 481 kts | 349° |
| 2026-04-28 21:11 | 2.50340 | 10.10662 | 35930 ft | 482 kts | 348° |
| 2026-04-28 21:12 | 2.56839 | 10.09078 | 35932 ft | 481 kts | 349° |
| 2026-04-28 21:12 | 2.63351 | 10.07493 | 35929 ft | 482 kts | 348° |
| 2026-04-28 21:13 | 2.69877 | 10.05911 | 35934 ft | 483 kts | 349° |
| 2026-04-28 21:13 | 2.76404 | 10.04311 | 35929 ft | 482 kts | 348° |
| 2026-04-28 21:14 | 2.82926 | 10.02739 | 35926 ft | 482 kts | 349° |
| 2026-04-28 21:14 | 2.89445 | 10.01134 | 35933 ft | 483 kts | 348° |
| 2026-04-28 21:15 | 2.95949 | 9.99571 | 35929 ft | 484 kts | 349° |
| 2026-04-28 21:15 | 3.02492 | 9.97955 | 35922 ft | 484 kts | 348° |
| 2026-04-28 21:16 | 3.09044 | 9.96383 | 35920 ft | 484 kts | 348° |
| 2026-04-28 21:16 | 3.15579 | 9.94768 | 35927 ft | 484 kts | 348° |
| 2026-04-28 21:17 | 3.22128 | 9.93196 | 35918 ft | 484 kts | 348° |
| 2026-04-28 21:17 | 3.28672 | 9.91579 | 35932 ft | 484 kts | 349° |
| 2026-04-28 21:18 | 3.35233 | 9.90002 | 35931 ft | 485 kts | 348° |
| 2026-04-28 21:18 | 3.41785 | 9.88387 | 35933 ft | 485 kts | 349° |
| 2026-04-28 21:19 | 3.48306 | 9.86813 | 35922 ft | 486 kts | 348° |
| 2026-04-28 21:19 | 3.54868 | 9.85202 | 35931 ft | 484 kts | 349° |
| 2026-04-28 21:20 | 3.61416 | 9.83613 | 35930 ft | 484 kts | 348° |
| 2026-04-28 21:20 | 3.67967 | 9.82012 | 35934 ft | 485 kts | 349° |
| 2026-04-28 21:21 | 3.74528 | 9.80412 | 35939 ft | 485 kts | 348° |
| 2026-04-28 21:21 | 3.81082 | 9.78818 | 35953 ft | 485 kts | 349° |
| 2026-04-28 21:22 | 3.87648 | 9.77208 | 35949 ft | 486 kts | 348° |
| 2026-04-28 21:22 | 3.93114 | 9.75879 | 35931 ft | 485 kts | 349° |
| 2026-04-28 21:23 | 4.00754 | 9.73899 | 35931 ft | 486 kts | 343° |
| 2026-04-28 21:23 | 4.07107 | 9.71578 | 35930 ft | 488 kts | 343° |
| 2026-04-28 21:24 | 4.13531 | 9.69389 | 35946 ft | 487 kts | 342° |
| 2026-04-28 21:24 | 4.19855 | 9.67073 | 35953 ft | 487 kts | 343° |
| 2026-04-28 21:25 | 4.26274 | 9.64877 | 35959 ft | 488 kts | 342° |
| 2026-04-28 21:25 | 4.32649 | 9.62551 | 35955 ft | 487 kts | 342° |
| 2026-04-28 21:26 | 4.39059 | 9.60348 | 35960 ft | 487 kts | 342° |
| 2026-04-28 21:26 | 4.45423 | 9.58036 | 35967 ft | 487 kts | 342° |
| 2026-04-28 21:27 | 4.51909 | 9.56114 | 35979 ft | 485 kts | 350° |
| 2026-04-28 21:27 | 4.58535 | 9.54762 | 35966 ft | 486 kts | 349° |
| 2026-04-28 21:28 | 4.65124 | 9.53256 | 35975 ft | 486 kts | 350° |
| 2026-04-28 21:28 | 4.71746 | 9.51892 | 35978 ft | 486 kts | 349° |
| 2026-04-28 21:29 | 4.78333 | 9.50396 | 35989 ft | 485 kts | 350° |
| 2026-04-28 21:29 | 4.84949 | 9.49025 | 35979 ft | 486 kts | 349° |
| 2026-04-28 21:30 | 4.91549 | 9.47534 | 35981 ft | 486 kts | 350° |
| 2026-04-28 21:30 | 4.98165 | 9.46154 | 35991 ft | 486 kts | 349° |
| 2026-04-28 21:31 | 5.04773 | 9.44668 | 35992 ft | 486 kts | 350° |
| 2026-04-28 21:31 | 5.11382 | 9.43281 | 35981 ft | 485 kts | 349° |
| 2026-04-28 21:32 | 5.17921 | 9.41816 | 35975 ft | 484 kts | 350° |
| 2026-04-28 21:32 | 5.24514 | 9.40426 | 35964 ft | 484 kts | 349° |
| 2026-04-28 21:33 | 5.31088 | 9.38959 | 35968 ft | 483 kts | 350° |
| 2026-04-28 21:33 | 5.37673 | 9.37564 | 35955 ft | 484 kts | 349° |
| 2026-04-28 21:34 | 5.44259 | 9.36100 | 35958 ft | 484 kts | 350° |
| 2026-04-28 21:34 | 5.50865 | 9.34694 | 35957 ft | 485 kts | 349° |
| 2026-04-28 21:35 | 5.57449 | 9.33236 | 35950 ft | 484 kts | 350° |
| 2026-04-28 21:35 | 5.64030 | 9.31829 | 35944 ft | 484 kts | 349° |
| 2026-04-28 21:36 | 5.70616 | 9.30391 | 35931 ft | 482 kts | 352° |
| 2026-04-28 21:36 | 5.77275 | 9.29662 | 35925 ft | 483 kts | 355° |
| 2026-04-28 21:37 | 5.83941 | 9.28800 | 35931 ft | 483 kts | 355° |
| 2026-04-28 21:37 | 5.90622 | 9.28105 | 35930 ft | 483 kts | 355° |
| 2026-04-28 21:38 | 5.97297 | 9.27254 | 35933 ft | 483 kts | 355° |
| 2026-04-28 21:38 | 6.03974 | 9.26549 | 35931 ft | 482 kts | 355° |
| 2026-04-28 21:39 | 6.10629 | 9.25709 | 35943 ft | 482 kts | 355° |
| 2026-04-28 21:39 | 6.17310 | 9.25011 | 35938 ft | 482 kts | 357° |
| 2026-04-28 21:40 | 6.23994 | 9.24542 | 35938 ft | 483 kts | 357° |
| 2026-04-28 21:40 | 6.30695 | 9.24092 | 35936 ft | 483 kts | 358° |
| 2026-04-28 21:41 | 6.37398 | 9.23658 | 35940 ft | 482 kts | 357° |
| 2026-04-28 21:41 | 6.44094 | 9.23210 | 35943 ft | 482 kts | 358° |
| 2026-04-28 21:42 | 6.50786 | 9.22771 | 35934 ft | 482 kts | 357° |
| 2026-04-28 21:42 | 6.57487 | 9.22328 | 35933 ft | 482 kts | 358° |
| 2026-04-28 21:43 | 6.64180 | 9.21884 | 35926 ft | 482 kts | 357° |
| 2026-04-28 21:43 | 6.69744 | 9.21509 | 35916 ft | 482 kts | 358° |
| 2026-04-28 21:44 | 6.76439 | 9.21082 | 35921 ft | 483 kts | 357° |
| 2026-04-28 21:44 | 6.83142 | 9.20627 | 35910 ft | 482 kts | 358° |
| 2026-04-28 21:45 | 6.89845 | 9.20192 | 35913 ft | 483 kts | 358° |
| 2026-04-28 21:45 | 6.97639 | 9.19676 | 35906 ft | 483 kts | 358° |
| 2026-04-28 21:46 | 7.03269 | 9.19303 | 35902 ft | 484 kts | 358° |
| 2026-04-28 21:46 | 7.09978 | 9.18787 | 35892 ft | 484 kts | 354° |
| 2026-04-28 21:47 | 7.16598 | 9.17850 | 35897 ft | 484 kts | 355° |
| 2026-04-28 21:47 | 7.23295 | 9.17003 | 35896 ft | 484 kts | 354° |
| 2026-04-28 21:48 | 7.29957 | 9.16042 | 35904 ft | 484 kts | 354° |
| 2026-04-28 21:48 | 7.36636 | 9.15188 | 35897 ft | 483 kts | 354° |
| 2026-04-28 21:49 | 7.43289 | 9.14237 | 35894 ft | 482 kts | 354° |
| 2026-04-28 21:49 | 7.49946 | 9.13376 | 35896 ft | 482 kts | 354° |
| 2026-04-28 21:50 | 7.56592 | 9.12440 | 35896 ft | 482 kts | 354° |
| 2026-04-28 21:50 | 7.63250 | 9.11563 | 35889 ft | 482 kts | 354° |
| 2026-04-28 21:51 | 7.69906 | 9.10634 | 35893 ft | 482 kts | 354° |
| 2026-04-28 21:51 | 7.76555 | 9.09754 | 35893 ft | 482 kts | 354° |
| 2026-04-28 21:52 | 7.83198 | 9.08829 | 35892 ft | 481 kts | 354° |
| 2026-04-28 21:52 | 7.89845 | 9.07944 | 35881 ft | 482 kts | 354° |
| 2026-04-28 21:53 | 7.96432 | 9.07031 | 35894 ft | 481 kts | 354° |
| 2026-04-28 21:53 | 8.03070 | 9.06143 | 35888 ft | 482 kts | 354° |
| 2026-04-28 21:54 | 8.09724 | 9.05224 | 35887 ft | 482 kts | 354° |
| 2026-04-28 21:54 | 8.16382 | 9.04436 | 35888 ft | 482 kts | 355° |
| 2026-04-28 21:55 | 8.22997 | 9.03637 | 35877 ft | 482 kts | 354° |
| 2026-04-28 21:55 | 8.29693 | 9.02843 | 35890 ft | 480 kts | 355° |
| 2026-04-28 21:56 | 8.36332 | 9.02016 | 35895 ft | 481 kts | 354° |
| 2026-04-28 21:56 | 8.42980 | 9.01223 | 35893 ft | 481 kts | 355° |
| 2026-04-28 21:57 | 8.49608 | 9.00257 | 35886 ft | 482 kts | 352° |
| 2026-04-28 21:57 | 8.56252 | 8.99366 | 35898 ft | 481 kts | 354° |
| 2026-04-28 21:58 | 8.62852 | 8.98418 | 35899 ft | 481 kts | 352° |
| 2026-04-28 21:58 | 8.69479 | 8.97521 | 35898 ft | 481 kts | 354° |
| 2026-04-28 21:59 | 8.76122 | 8.96571 | 35910 ft | 482 kts | 352° |
| 2026-04-28 22:00 | 8.86130 | 8.95219 | 35921 ft | 481 kts | 353° |
| 2026-04-28 22:00 | 8.92802 | 8.94229 | 35931 ft | 480 kts | 353° |
| 2026-04-28 22:01 | 8.99423 | 8.93361 | 35951 ft | 480 kts | 353° |
| 2026-04-28 22:01 | 9.05991 | 8.92392 | 35955 ft | 480 kts | 353° |
| 2026-04-28 22:02 | 9.12601 | 8.91517 | 35964 ft | 479 kts | 353° |
| 2026-04-28 22:02 | 9.19197 | 8.90553 | 35977 ft | 478 kts | 353° |
| 2026-04-28 22:03 | 9.25792 | 8.89669 | 35978 ft | 478 kts | 353° |
| 2026-04-28 22:03 | 9.32380 | 8.88714 | 35988 ft | 478 kts | 353° |
| 2026-04-28 22:04 | 9.38946 | 8.87828 | 35993 ft | 477 kts | 353° |
| 2026-04-28 22:04 | 9.45532 | 8.86878 | 35996 ft | 476 kts | 353° |
| 2026-04-28 22:05 | 9.52097 | 8.85984 | 35996 ft | 476 kts | 353° |
| 2026-04-28 22:05 | 9.58652 | 8.85045 | 35988 ft | 476 kts | 353° |
| 2026-04-28 22:06 | 9.65220 | 8.84178 | 35981 ft | 475 kts | 355° |
| 2026-04-28 22:06 | 9.71803 | 8.83425 | 35984 ft | 476 kts | 353° |
| 2026-04-28 22:07 | 9.78385 | 8.82658 | 35982 ft | 477 kts | 355° |
| 2026-04-28 22:07 | 9.84987 | 8.81931 | 35975 ft | 477 kts | 353° |
| 2026-04-28 22:08 | 9.91587 | 8.81160 | 35970 ft | 477 kts | 355° |
| 2026-04-28 22:08 | 9.98196 | 8.80431 | 35964 ft | 477 kts | 353° |
| 2026-04-28 22:09 | 10.04799 | 8.79661 | 35957 ft | 478 kts | 355° |
| 2026-04-28 22:09 | 10.11414 | 8.78926 | 35952 ft | 479 kts | 353° |
| 2026-04-28 22:10 | 10.17984 | 8.78165 | 35958 ft | 479 kts | 354° |
| 2026-04-28 22:10 | 10.24613 | 8.77423 | 35950 ft | 479 kts | 353° |
| 2026-04-28 22:11 | 10.31241 | 8.76659 | 35942 ft | 480 kts | 354° |
| 2026-04-28 22:11 | 10.37885 | 8.75909 | 35939 ft | 480 kts | 353° |
| 2026-04-28 22:12 | 10.44524 | 8.75149 | 35945 ft | 481 kts | 354° |
| 2026-04-28 22:12 | 10.51173 | 8.74392 | 35945 ft | 481 kts | 353° |
| 2026-04-28 22:13 | 10.57820 | 8.73638 | 35940 ft | 481 kts | 354° |
| 2026-04-28 22:13 | 10.64472 | 8.72872 | 35932 ft | 481 kts | 353° |
| 2026-04-28 22:14 | 10.71132 | 8.72123 | 35929 ft | 481 kts | 354° |
| 2026-04-28 22:14 | 10.77794 | 8.71349 | 35925 ft | 481 kts | 353° |
| 2026-04-28 22:15 | 10.84450 | 8.70605 | 35921 ft | 481 kts | 353° |
| 2026-04-28 22:15 | 10.91091 | 8.69688 | 35910 ft | 481 kts | 349° |
| 2026-04-28 22:16 | 10.97689 | 8.68517 | 35907 ft | 482 kts | 351° |
| 2026-04-28 22:16 | 11.04307 | 8.67348 | 35902 ft | 483 kts | 348° |
| 2026-04-28 22:17 | 11.10912 | 8.66163 | 35903 ft | 482 kts | 350° |
| 2026-04-28 22:17 | 11.17529 | 8.64992 | 35899 ft | 482 kts | 348° |
| 2026-04-28 22:18 | 11.24092 | 8.63815 | 35936 ft | 482 kts | 350° |
| 2026-04-28 22:18 | 11.30695 | 8.62645 | 35931 ft | 482 kts | 349° |
| 2026-04-28 22:19 | 11.37298 | 8.61461 | 35923 ft | 483 kts | 350° |
| 2026-04-28 22:19 | 11.43926 | 8.60283 | 35918 ft | 483 kts | 349° |
| 2026-04-28 22:20 | 11.50547 | 8.59096 | 35914 ft | 483 kts | 350° |
| 2026-04-28 22:20 | 11.57176 | 8.57915 | 35912 ft | 484 kts | 349° |
| 2026-04-28 22:21 | 11.63809 | 8.56729 | 35913 ft | 485 kts | 350° |
| 2026-04-28 22:21 | 11.70427 | 8.55544 | 35913 ft | 484 kts | 349° |
| 2026-04-28 22:22 | 11.77078 | 8.54358 | 35915 ft | 484 kts | 349° |
| 2026-04-28 22:22 | 11.83690 | 8.53168 | 35916 ft | 483 kts | 349° |
| 2026-04-28 22:23 | 11.90319 | 8.51991 | 35917 ft | 483 kts | 349° |
| 2026-04-28 22:23 | 11.96891 | 8.50800 | 35915 ft | 482 kts | 349° |
| 2026-04-28 22:24 | 12.03499 | 8.49642 | 35912 ft | 483 kts | 351° |
| 2026-04-28 22:24 | 12.10210 | 8.48982 | 35905 ft | 485 kts | 353° |
| 2026-04-28 22:25 | 12.16911 | 8.48269 | 35912 ft | 484 kts | 353° |
| 2026-04-28 22:25 | 12.23633 | 8.47656 | 35911 ft | 484 kts | 353° |
| 2026-04-28 22:26 | 12.30328 | 8.46950 | 35902 ft | 484 kts | 353° |
| 2026-04-28 22:26 | 12.37038 | 8.46330 | 35892 ft | 484 kts | 353° |
| 2026-04-28 22:27 | 12.43745 | 8.45629 | 35904 ft | 484 kts | 353° |
| 2026-04-28 22:27 | 12.50455 | 8.45003 | 35897 ft | 484 kts | 353° |
| 2026-04-28 22:28 | 12.57149 | 8.44308 | 35891 ft | 484 kts | 353° |
| 2026-04-28 22:28 | 12.63817 | 8.43679 | 35900 ft | 484 kts | 353° |
| 2026-04-28 22:29 | 12.70570 | 8.42984 | 35903 ft | 485 kts | 353° |
| 2026-04-28 22:29 | 12.77253 | 8.42346 | 35899 ft | 485 kts | 353° |
| 2026-04-28 22:30 | 12.83973 | 8.41660 | 35901 ft | 485 kts | 353° |
| 2026-04-28 22:30 | 12.90691 | 8.41008 | 35893 ft | 484 kts | 353° |
| 2026-04-28 22:31 | 12.96274 | 8.40438 | 35894 ft | 485 kts | 353° |
| 2026-04-28 22:31 | 13.02987 | 8.39789 | 35899 ft | 485 kts | 353° |
| 2026-04-28 22:32 | 13.09725 | 8.39105 | 35899 ft | 486 kts | 353° |
| 2026-04-28 22:32 | 13.16458 | 8.38503 | 35893 ft | 486 kts | 353° |
| 2026-04-28 22:33 | 13.23192 | 8.37851 | 35888 ft | 486 kts | 353° |
| 2026-04-28 22:33 | 13.29926 | 8.37246 | 35890 ft | 486 kts | 353° |
| 2026-04-28 22:34 | 13.36650 | 8.36594 | 35889 ft | 485 kts | 353° |
| 2026-04-28 22:34 | 13.43364 | 8.35989 | 35887 ft | 484 kts | 353° |
| 2026-04-28 22:35 | 13.50065 | 8.35341 | 35889 ft | 484 kts | 353° |
| 2026-04-28 22:35 | 13.56772 | 8.34733 | 35890 ft | 483 kts | 353° |
| 2026-04-28 22:36 | 13.63476 | 8.34087 | 35885 ft | 484 kts | 353° |
| 2026-04-28 22:36 | 13.70183 | 8.33475 | 35886 ft | 484 kts | 353° |
| 2026-04-28 22:37 | 13.76892 | 8.32832 | 35877 ft | 484 kts | 353° |
| 2026-04-28 22:37 | 13.83597 | 8.32212 | 35877 ft | 484 kts | 353° |
| 2026-04-28 22:38 | 13.90304 | 8.31574 | 35881 ft | 484 kts | 353° |
| 2026-04-28 22:38 | 13.97001 | 8.30947 | 35883 ft | 483 kts | 352° |
| 2026-04-28 22:39 | 14.03701 | 8.30315 | 35885 ft | 483 kts | 353° |
| 2026-04-28 22:39 | 14.10341 | 8.29687 | 35875 ft | 481 kts | 352° |
| 2026-04-28 22:40 | 14.17016 | 8.29063 | 35876 ft | 482 kts | 353° |
| 2026-04-28 22:40 | 14.23679 | 8.28425 | 35874 ft | 481 kts | 352° |
| 2026-04-28 22:41 | 14.30344 | 8.27808 | 35879 ft | 480 kts | 353° |
| 2026-04-28 22:41 | 14.37001 | 8.27164 | 35883 ft | 480 kts | 352° |
| 2026-04-28 22:42 | 14.43658 | 8.26551 | 35878 ft | 480 kts | 353° |
| 2026-04-28 22:42 | 14.50317 | 8.25904 | 35872 ft | 480 kts | 352° |
| 2026-04-28 22:43 | 14.56968 | 8.25292 | 35877 ft | 479 kts | 352° |
| 2026-04-28 22:43 | 14.63607 | 8.24647 | 35879 ft | 479 kts | 353° |
| 2026-04-28 22:44 | 14.70250 | 8.24031 | 35878 ft | 478 kts | 352° |
| 2026-04-28 22:44 | 14.76867 | 8.23392 | 35879 ft | 478 kts | 353° |
| 2026-04-28 22:45 | 14.83524 | 8.22769 | 35867 ft | 484 kts | 352° |
| 2026-04-28 22:45 | 14.90254 | 8.22124 | 35876 ft | 486 kts | 352° |
| 2026-04-28 22:46 | 14.96985 | 8.21489 | 35882 ft | 485 kts | 352° |
| 2026-04-28 22:46 | 15.03668 | 8.20852 | 35881 ft | 485 kts | 352° |
| 2026-04-28 22:47 | 15.10380 | 8.20212 | 35877 ft | 484 kts | 352° |
| 2026-04-28 22:47 | 15.17087 | 8.19584 | 35879 ft | 484 kts | 352° |
| 2026-04-28 22:48 | 15.23793 | 8.18937 | 35881 ft | 484 kts | 351° |
| 2026-04-28 22:48 | 15.30515 | 8.18313 | 35886 ft | 484 kts | 352° |
| 2026-04-28 22:49 | 15.37223 | 8.17660 | 35881 ft | 484 kts | 351° |
| 2026-04-28 22:49 | 15.43931 | 8.17041 | 35879 ft | 484 kts | 352° |
| 2026-04-28 22:50 | 15.50635 | 8.16384 | 35883 ft | 484 kts | 351° |
| 2026-04-28 22:50 | 15.57348 | 8.15765 | 35889 ft | 484 kts | 351° |
| 2026-04-28 22:51 | 15.64051 | 8.15108 | 35896 ft | 484 kts | 351° |
| 2026-04-28 22:51 | 15.70764 | 8.14486 | 35895 ft | 484 kts | 351° |
| 2026-04-28 22:52 | 15.77427 | 8.13836 | 35892 ft | 484 kts | 351° |
| 2026-04-28 22:52 | 15.84141 | 8.13208 | 35892 ft | 484 kts | 351° |
| 2026-04-28 22:53 | 15.90852 | 8.12558 | 35892 ft | 484 kts | 351° |
| 2026-04-28 22:53 | 15.97559 | 8.11923 | 35900 ft | 484 kts | 351° |
| 2026-04-28 22:54 | 16.04272 | 8.11279 | 35897 ft | 485 kts | 351° |
| 2026-04-28 22:54 | 16.10993 | 8.10635 | 35898 ft | 485 kts | 351° |
| 2026-04-28 22:55 | 16.17714 | 8.09997 | 35898 ft | 485 kts | 351° |
| 2026-04-28 22:55 | 16.24437 | 8.09344 | 35901 ft | 484 kts | 351° |
| 2026-04-28 22:56 | 16.31156 | 8.08712 | 35899 ft | 485 kts | 351° |
| 2026-04-28 22:56 | 16.37827 | 8.08058 | 35895 ft | 485 kts | 351° |
| 2026-04-28 22:57 | 16.44565 | 8.07428 | 35893 ft | 486 kts | 351° |
| 2026-04-28 22:57 | 16.51290 | 8.06763 | 35893 ft | 486 kts | 351° |
| 2026-04-28 22:58 | 16.58024 | 8.06136 | 35900 ft | 486 kts | 351° |
| 2026-04-28 22:58 | 16.64759 | 8.05468 | 35899 ft | 485 kts | 351° |
| 2026-04-28 22:59 | 16.71480 | 8.04841 | 35891 ft | 485 kts | 351° |
| 2026-04-28 22:59 | 16.78213 | 8.04174 | 35897 ft | 486 kts | 351° |
| 2026-04-28 23:00 | 16.84954 | 8.03542 | 35893 ft | 486 kts | 350° |
| 2026-04-28 23:00 | 16.91683 | 8.02878 | 35894 ft | 486 kts | 351° |
| 2026-04-28 23:01 | 16.98368 | 8.02245 | 35906 ft | 485 kts | 350° |
| 2026-04-28 23:01 | 17.05116 | 8.01714 | 35908 ft | 487 kts | 352° |
| 2026-04-28 23:02 | 17.11855 | 8.01166 | 35904 ft | 485 kts | 350° |
| 2026-04-28 23:02 | 17.18595 | 8.00630 | 35895 ft | 487 kts | 352° |
| 2026-04-28 23:03 | 17.25347 | 8.00079 | 35911 ft | 486 kts | 350° |
| 2026-04-28 23:03 | 17.32090 | 7.99544 | 35910 ft | 486 kts | 352° |
| 2026-04-28 23:04 | 17.38833 | 7.98990 | 35904 ft | 485 kts | 350° |
| 2026-04-28 23:04 | 17.48944 | 7.98203 | 35889 ft | 486 kts | 351° |
| 2026-04-28 23:05 | 17.55684 | 7.97613 | 35899 ft | 487 kts | 351° |
| 2026-04-28 23:05 | 17.62441 | 7.97109 | 35901 ft | 486 kts | 351° |
| 2026-04-28 23:06 | 17.69182 | 7.96524 | 35905 ft | 487 kts | 351° |
| 2026-04-28 23:06 | 17.75950 | 7.96012 | 35909 ft | 486 kts | 351° |
| 2026-04-28 23:07 | 17.82699 | 7.95432 | 35905 ft | 486 kts | 351° |
| 2026-04-28 23:07 | 17.89436 | 7.94915 | 35901 ft | 485 kts | 350° |
| 2026-04-28 23:08 | 17.96157 | 7.94343 | 35901 ft | 486 kts | 351° |
| 2026-04-28 23:08 | 18.02915 | 7.93817 | 35902 ft | 485 kts | 350° |
| 2026-04-28 23:09 | 18.09659 | 7.93250 | 35909 ft | 486 kts | 351° |
| 2026-04-28 23:09 | 18.16398 | 7.92717 | 35903 ft | 485 kts | 350° |
| 2026-04-28 23:10 | 18.23134 | 7.92155 | 35899 ft | 486 kts | 351° |
| 2026-04-28 23:10 | 18.29877 | 7.91618 | 35896 ft | 486 kts | 350° |
| 2026-04-28 23:11 | 18.36614 | 7.91058 | 35889 ft | 487 kts | 351° |
| 2026-04-28 23:11 | 18.43366 | 7.90515 | 35891 ft | 486 kts | 350° |
| 2026-04-28 23:12 | 18.50109 | 7.89959 | 35898 ft | 487 kts | 351° |
| 2026-04-28 23:12 | 18.56855 | 7.89410 | 35900 ft | 485 kts | 350° |
| 2026-04-28 23:13 | 18.63555 | 7.88863 | 35890 ft | 486 kts | 351° |
| 2026-04-28 23:13 | 18.70296 | 7.88307 | 35880 ft | 486 kts | 350° |
| 2026-04-28 23:14 | 18.77076 | 7.87757 | 35880 ft | 486 kts | 350° |
| 2026-04-28 23:14 | 18.83760 | 7.87204 | 35886 ft | 485 kts | 350° |
| 2026-04-28 23:15 | 18.90506 | 7.86654 | 35889 ft | 486 kts | 350° |
| 2026-04-28 23:15 | 18.97248 | 7.86098 | 35884 ft | 486 kts | 350° |
| 2026-04-28 23:16 | 19.04035 | 7.85543 | 35881 ft | 485 kts | 350° |
| 2026-04-28 23:16 | 19.10760 | 7.84985 | 35883 ft | 484 kts | 350° |
| 2026-04-28 23:17 | 19.17491 | 7.84436 | 35880 ft | 485 kts | 350° |
| 2026-04-28 23:17 | 19.24180 | 7.83879 | 35893 ft | 485 kts | 350° |
| 2026-04-28 23:18 | 19.29822 | 7.83420 | 35889 ft | 485 kts | 350° |
| 2026-04-28 23:18 | 19.37643 | 7.82768 | 35883 ft | 485 kts | 350° |
| 2026-04-28 23:19 | 19.43252 | 7.82311 | 35889 ft | 486 kts | 350° |
| 2026-04-28 23:19 | 19.49988 | 7.81747 | 35882 ft | 486 kts | 349° |
| 2026-04-28 23:20 | 19.56737 | 7.81218 | 35886 ft | 487 kts | 350° |
| 2026-04-28 23:20 | 19.63481 | 7.80677 | 35880 ft | 486 kts | 349° |
| 2026-04-28 23:21 | 19.70243 | 7.80145 | 35889 ft | 486 kts | 350° |
| 2026-04-28 23:21 | 19.76996 | 7.79600 | 35891 ft | 486 kts | 349° |
| 2026-04-28 23:22 | 19.83746 | 7.79070 | 35896 ft | 487 kts | 350° |
| 2026-04-28 23:22 | 19.90510 | 7.78524 | 35887 ft | 486 kts | 349° |
| 2026-04-28 23:23 | 19.97262 | 7.77991 | 35878 ft | 487 kts | 349° |
| 2026-04-28 23:23 | 20.04021 | 7.77445 | 35876 ft | 487 kts | 349° |
| 2026-04-28 23:24 | 20.10783 | 7.76911 | 35884 ft | 487 kts | 349° |
| 2026-04-28 23:24 | 20.17548 | 7.76364 | 35893 ft | 487 kts | 349° |
| 2026-04-28 23:25 | 20.24308 | 7.75827 | 35896 ft | 487 kts | 349° |
| 2026-04-28 23:25 | 20.31055 | 7.75282 | 35889 ft | 486 kts | 349° |
| 2026-04-28 23:26 | 20.37807 | 7.74744 | 35884 ft | 486 kts | 349° |
| 2026-04-28 23:26 | 20.44493 | 7.74204 | 35890 ft | 485 kts | 349° |
| 2026-04-28 23:27 | 20.51233 | 7.73665 | 35895 ft | 485 kts | 349° |
| 2026-04-28 23:27 | 20.57958 | 7.73123 | 35891 ft | 485 kts | 349° |
| 2026-04-28 23:28 | 20.64698 | 7.72581 | 35888 ft | 485 kts | 349° |
| 2026-04-28 23:28 | 20.71427 | 7.72039 | 35884 ft | 485 kts | 349° |
| 2026-04-28 23:29 | 20.78167 | 7.71494 | 35881 ft | 485 kts | 348° |
| 2026-04-28 23:29 | 20.84892 | 7.70953 | 35880 ft | 485 kts | 349° |
| 2026-04-28 23:30 | 20.91624 | 7.70406 | 35890 ft | 485 kts | 348° |
| 2026-04-28 23:30 | 20.98333 | 7.69783 | 35884 ft | 480 kts | 345° |
| 2026-04-28 23:31 | 21.04962 | 7.68814 | 35877 ft | 482 kts | 346° |
| 2026-04-28 23:31 | 21.11612 | 7.67939 | 35883 ft | 481 kts | 345° |
| 2026-04-28 23:32 | 21.18260 | 7.66961 | 35889 ft | 482 kts | 346° |
| 2026-04-28 23:32 | 21.24899 | 7.66074 | 35887 ft | 480 kts | 345° |
| 2026-04-28 23:33 | 21.31533 | 7.65106 | 35880 ft | 482 kts | 345° |
| 2026-04-28 23:33 | 21.38177 | 7.64209 | 35880 ft | 481 kts | 345° |
| 2026-04-28 23:34 | 21.44808 | 7.63248 | 35881 ft | 481 kts | 345° |
| 2026-04-28 23:34 | 21.51440 | 7.62342 | 35882 ft | 480 kts | 344° |
| 2026-04-28 23:35 | 21.58066 | 7.61387 | 35877 ft | 481 kts | 345° |
| 2026-04-28 23:35 | 21.64693 | 7.60474 | 35878 ft | 480 kts | 344° |
| 2026-04-28 23:36 | 21.71284 | 7.59530 | 35885 ft | 481 kts | 345° |
| 2026-04-28 23:36 | 21.77960 | 7.58600 | 35889 ft | 480 kts | 344° |
| 2026-04-28 23:37 | 21.84580 | 7.57659 | 35886 ft | 479 kts | 345° |
| 2026-04-28 23:37 | 21.91149 | 7.56734 | 35882 ft | 479 kts | 344° |
| 2026-04-28 23:38 | 21.97765 | 7.55798 | 35882 ft | 480 kts | 345° |
| 2026-04-28 23:38 | 22.04375 | 7.54859 | 35895 ft | 479 kts | 344° |
| 2026-04-28 23:39 | 22.11003 | 7.53927 | 35903 ft | 479 kts | 345° |
| 2026-04-28 23:39 | 22.17598 | 7.52981 | 35895 ft | 478 kts | 344° |
| 2026-04-28 23:40 | 22.24218 | 7.52055 | 35894 ft | 479 kts | 344° |
| 2026-04-28 23:40 | 22.30823 | 7.51101 | 35902 ft | 479 kts | 344° |
| 2026-04-28 23:41 | 22.37440 | 7.50176 | 35915 ft | 480 kts | 344° |
| 2026-04-28 23:41 | 22.44021 | 7.49222 | 35914 ft | 480 kts | 344° |
| 2026-04-28 23:42 | 22.50643 | 7.48297 | 35915 ft | 480 kts | 344° |
| 2026-04-28 23:42 | 22.57240 | 7.47338 | 35925 ft | 478 kts | 344° |
| 2026-04-28 23:43 | 22.63858 | 7.46410 | 35930 ft | 479 kts | 344° |
| 2026-04-28 23:43 | 22.70465 | 7.45450 | 35931 ft | 479 kts | 343° |
| 2026-04-28 23:44 | 22.77079 | 7.44519 | 35917 ft | 480 kts | 343° |
| 2026-04-28 23:44 | 22.83689 | 7.43558 | 35927 ft | 480 kts | 343° |
| 2026-04-28 23:45 | 22.90312 | 7.42621 | 35947 ft | 479 kts | 343° |
| 2026-04-28 23:45 | 22.96917 | 7.41664 | 35947 ft | 479 kts | 343° |
| 2026-04-28 23:46 | 23.03521 | 7.40724 | 35942 ft | 478 kts | 343° |
| 2026-04-28 23:46 | 23.10121 | 7.39767 | 35944 ft | 479 kts | 343° |
| 2026-04-28 23:47 | 23.16713 | 7.38825 | 35946 ft | 478 kts | 343° |
| 2026-04-28 23:47 | 23.23313 | 7.37871 | 35953 ft | 478 kts | 343° |
| 2026-04-28 23:48 | 23.29861 | 7.36927 | 35963 ft | 478 kts | 343° |
| 2026-04-28 23:48 | 23.36468 | 7.35975 | 35957 ft | 479 kts | 343° |
| 2026-04-28 23:49 | 23.43064 | 7.35018 | 35950 ft | 478 kts | 343° |
| 2026-04-28 23:49 | 23.49656 | 7.34071 | 35954 ft | 479 kts | 343° |
| 2026-04-28 23:50 | 23.56310 | 7.33343 | 35963 ft | 482 kts | 345° |
| 2026-04-28 23:50 | 23.62977 | 7.32596 | 35973 ft | 481 kts | 345° |
| 2026-04-28 23:51 | 23.69669 | 7.31924 | 35968 ft | 482 kts | 345° |
| 2026-04-28 23:51 | 23.76332 | 7.31188 | 35970 ft | 481 kts | 345° |
| 2026-04-28 23:52 | 23.83021 | 7.30511 | 35969 ft | 482 kts | 345° |
| 2026-04-28 23:52 | 23.89678 | 7.29777 | 35987 ft | 482 kts | 345° |
| 2026-04-28 23:53 | 23.96372 | 7.29095 | 35981 ft | 482 kts | 345° |
| 2026-04-28 23:53 | 24.03054 | 7.28359 | 35971 ft | 483 kts | 345° |
| 2026-04-28 23:54 | 24.09693 | 7.27682 | 35972 ft | 482 kts | 345° |
| 2026-04-28 23:54 | 24.16396 | 7.26942 | 35977 ft | 481 kts | 345° |
| 2026-04-28 23:55 | 24.23013 | 7.26261 | 35971 ft | 481 kts | 345° |
| 2026-04-28 23:55 | 24.29694 | 7.25528 | 35980 ft | 482 kts | 345° |
| 2026-04-28 23:56 | 24.36389 | 7.24832 | 35965 ft | 483 kts | 345° |
| 2026-04-28 23:56 | 24.43070 | 7.24103 | 35979 ft | 482 kts | 345° |
| 2026-04-28 23:57 | 24.49739 | 7.23405 | 35982 ft | 481 kts | 345° |
| 2026-04-28 23:57 | 24.56410 | 7.22675 | 35985 ft | 481 kts | 345° |
| 2026-04-28 23:58 | 24.63087 | 7.21976 | 35976 ft | 482 kts | 345° |
| 2026-04-28 23:58 | 24.69759 | 7.21244 | 35982 ft | 483 kts | 345° |
| 2026-04-28 23:59 | 24.76443 | 7.20543 | 35981 ft | 481 kts | 345° |
| 2026-04-28 23:59 | 24.83101 | 7.19813 | 35992 ft | 481 kts | 345° |
| 2026-04-29 00:00 | 24.89773 | 7.19106 | 35988 ft | 482 kts | 344° |
| 2026-04-29 00:00 | 24.96453 | 7.18378 | 35998 ft | 482 kts | 345° |
| 2026-04-29 00:01 | 25.03128 | 7.17669 | 35988 ft | 481 kts | 344° |
| 2026-04-29 00:01 | 25.09754 | 7.16948 | 35997 ft | 481 kts | 345° |
| 2026-04-29 00:02 | 25.16424 | 7.16236 | 36001 ft | 482 kts | 344° |
| 2026-04-29 00:02 | 25.23093 | 7.15515 | 36001 ft | 482 kts | 345° |
| 2026-04-29 00:03 | 25.29758 | 7.14794 | 35999 ft | 481 kts | 344° |
| 2026-04-29 00:03 | 25.36433 | 7.14077 | 36004 ft | 482 kts | 345° |
| 2026-04-29 00:04 | 25.43107 | 7.13350 | 36005 ft | 482 kts | 344° |
| 2026-04-29 00:04 | 25.49770 | 7.12636 | 35998 ft | 480 kts | 344° |
| 2026-04-29 00:05 | 25.55338 | 7.12026 | 36006 ft | 481 kts | 344° |
| 2026-04-29 00:05 | 25.61962 | 7.11312 | 36006 ft | 481 kts | 344° |
| 2026-04-29 00:06 | 25.68617 | 7.10586 | 35996 ft | 481 kts | 344° |
| 2026-04-29 00:06 | 25.75321 | 7.09858 | 35991 ft | 481 kts | 344° |
| 2026-04-29 00:07 | 25.81918 | 7.09140 | 35994 ft | 479 kts | 344° |
| 2026-04-29 00:07 | 25.88558 | 7.08417 | 35993 ft | 479 kts | 344° |
| 2026-04-29 00:08 | 25.95155 | 7.07702 | 36014 ft | 471 kts | 344° |
| 2026-04-29 00:08 | 26.01683 | 7.06976 | 35958 ft | 474 kts | 344° |
| 2026-04-29 00:09 | 26.08192 | 7.06313 | 35998 ft | 469 kts | 343° |
| 2026-04-29 00:09 | 26.14718 | 7.05563 | 35981 ft | 475 kts | 344° |
| 2026-04-29 00:10 | 26.21348 | 7.04900 | 35966 ft | 479 kts | 344° |
| 2026-04-29 00:10 | 26.27938 | 7.04152 | 35959 ft | 479 kts | 344° |
| 2026-04-29 00:11 | 26.34563 | 7.03478 | 35961 ft | 477 kts | 344° |
| 2026-04-29 00:12 | 26.44530 | 7.02387 | 35947 ft | 478 kts | 344° |
| 2026-04-29 00:12 | 26.51089 | 7.01678 | 35962 ft | 477 kts | 343° |
| 2026-04-29 00:13 | 26.57708 | 7.00974 | 35956 ft | 478 kts | 344° |
| 2026-04-29 00:13 | 26.64353 | 7.00228 | 35950 ft | 480 kts | 344° |
| 2026-04-29 00:14 | 26.71012 | 6.99542 | 35947 ft | 481 kts | 344° |
| 2026-04-29 00:14 | 26.77645 | 6.98790 | 35952 ft | 477 kts | 343° |
| 2026-04-29 00:15 | 26.84271 | 6.98101 | 35964 ft | 478 kts | 344° |
| 2026-04-29 00:15 | 26.90883 | 6.97356 | 35956 ft | 476 kts | 343° |
| 2026-04-29 00:16 | 26.97511 | 6.96657 | 35967 ft | 481 kts | 344° |
| 2026-04-29 00:16 | 27.04151 | 6.95918 | 35941 ft | 479 kts | 343° |
| 2026-04-29 00:17 | 27.10779 | 6.95212 | 35952 ft | 477 kts | 343° |
| 2026-04-29 00:17 | 27.17390 | 6.94473 | 35955 ft | 478 kts | 344° |
| 2026-04-29 00:18 | 27.24005 | 6.93767 | 35952 ft | 477 kts | 343° |
| 2026-04-29 00:18 | 27.30621 | 6.93029 | 35956 ft | 477 kts | 344° |
| 2026-04-29 00:19 | 27.37181 | 6.92323 | 35948 ft | 477 kts | 343° |
| 2026-04-29 00:19 | 27.43780 | 6.91591 | 35955 ft | 477 kts | 344° |
| 2026-04-29 00:20 | 27.50386 | 6.90871 | 35953 ft | 475 kts | 344° |
| 2026-04-29 00:20 | 27.56962 | 6.90145 | 35944 ft | 475 kts | 344° |
| 2026-04-29 00:21 | 27.63547 | 6.89423 | 35944 ft | 475 kts | 344° |
| 2026-04-29 00:21 | 27.70138 | 6.88694 | 35946 ft | 475 kts | 344° |
| 2026-04-29 00:22 | 27.76725 | 6.87968 | 35946 ft | 475 kts | 344° |
| 2026-04-29 00:22 | 27.83311 | 6.87242 | 35954 ft | 476 kts | 344° |
| 2026-04-29 00:23 | 27.89865 | 6.86514 | 35951 ft | 476 kts | 344° |
| 2026-04-29 00:23 | 27.96475 | 6.85787 | 35946 ft | 478 kts | 345° |
| 2026-04-29 00:24 | 28.03088 | 6.85050 | 35953 ft | 476 kts | 344° |
| 2026-04-29 00:24 | 28.09699 | 6.84373 | 35935 ft | 482 kts | 350° |
| 2026-04-29 00:24 | 28.13087 | 6.84787 | 35968 ft | 501 kts | 4° |
| 2026-04-29 00:25 | 28.16460 | 6.86058 | 35936 ft | 520 kts | 18° |
| 2026-04-29 00:25 | 28.22792 | 6.90189 | 35936 ft | 525 kts | 23° |
| 2026-04-29 00:26 | 28.29114 | 6.94306 | 35954 ft | 525 kts | 24° |
| 2026-04-29 00:26 | 28.35403 | 6.98536 | 35950 ft | 524 kts | 22° |
| 2026-04-29 00:27 | 28.41732 | 7.02653 | 35949 ft | 525 kts | 24° |
| 2026-04-29 00:27 | 28.48010 | 7.06887 | 35950 ft | 524 kts | 23° |
| 2026-04-29 00:28 | 28.54328 | 7.11010 | 35952 ft | 524 kts | 24° |
| 2026-04-29 00:28 | 28.60603 | 7.15252 | 35958 ft | 523 kts | 23° |
| 2026-04-29 00:29 | 28.66907 | 7.19380 | 35958 ft | 523 kts | 24° |
| 2026-04-29 00:29 | 28.73163 | 7.23618 | 35956 ft | 522 kts | 23° |
| 2026-04-29 00:30 | 28.79456 | 7.27752 | 35950 ft | 522 kts | 24° |
| 2026-04-29 00:30 | 28.85698 | 7.31991 | 35963 ft | 521 kts | 24° |
| 2026-04-29 00:31 | 28.91973 | 7.36128 | 35934 ft | 521 kts | 24° |
| 2026-04-29 00:31 | 28.98205 | 7.40367 | 35968 ft | 520 kts | 24° |
| 2026-04-29 00:32 | 29.04419 | 7.44481 | 35937 ft | 521 kts | 24° |
| 2026-04-29 00:32 | 29.10638 | 7.48720 | 35945 ft | 520 kts | 24° |
| 2026-04-29 00:33 | 29.16892 | 7.52873 | 35951 ft | 520 kts | 25° |
| 2026-04-29 00:33 | 29.23111 | 7.57121 | 35954 ft | 520 kts | 24° |
| 2026-04-29 00:34 | 29.29362 | 7.61290 | 35952 ft | 520 kts | 25° |
| 2026-04-29 00:34 | 29.35578 | 7.65544 | 35954 ft | 519 kts | 24° |
| 2026-04-29 00:35 | 29.41819 | 7.69720 | 35953 ft | 520 kts | 25° |
| 2026-04-29 00:35 | 29.48020 | 7.73973 | 35947 ft | 519 kts | 24° |
| 2026-04-29 00:36 | 29.54253 | 7.78137 | 35952 ft | 518 kts | 24° |
| 2026-04-29 00:36 | 29.60474 | 7.82343 | 35953 ft | 518 kts | 24° |
| 2026-04-29 00:37 | 29.66702 | 7.86521 | 35941 ft | 519 kts | 25° |
| 2026-04-29 00:37 | 29.72921 | 7.90732 | 35941 ft | 519 kts | 25° |
| 2026-04-29 00:38 | 29.79151 | 7.94927 | 35948 ft | 519 kts | 25° |
| 2026-04-29 00:38 | 29.85374 | 7.99152 | 35942 ft | 518 kts | 25° |
| 2026-04-29 00:39 | 29.91558 | 8.03302 | 35934 ft | 518 kts | 25° |
| 2026-04-29 00:39 | 29.97759 | 8.07517 | 35940 ft | 517 kts | 25° |
| 2026-04-29 00:40 | 30.03978 | 8.11712 | 35925 ft | 518 kts | 25° |
| 2026-04-29 00:40 | 30.10175 | 8.15921 | 35941 ft | 517 kts | 25° |
| 2026-04-29 00:41 | 30.16389 | 8.20099 | 35938 ft | 517 kts | 25° |
| 2026-04-29 00:41 | 30.22581 | 8.24316 | 35936 ft | 516 kts | 25° |
| 2026-04-29 00:42 | 30.28775 | 8.28495 | 35927 ft | 515 kts | 25° |
| 2026-04-29 00:42 | 30.34961 | 8.32712 | 35935 ft | 515 kts | 25° |
| 2026-04-29 00:43 | 30.41147 | 8.36908 | 35935 ft | 515 kts | 25° |
| 2026-04-29 00:43 | 30.47318 | 8.41123 | 35923 ft | 515 kts | 25° |
| 2026-04-29 00:44 | 30.53522 | 8.45298 | 35927 ft | 515 kts | 25° |
| 2026-04-29 00:44 | 30.59703 | 8.49481 | 35924 ft | 515 kts | 25° |
| 2026-04-29 00:45 | 30.65893 | 8.53659 | 35908 ft | 515 kts | 25° |
| 2026-04-29 00:45 | 30.72076 | 8.57861 | 35936 ft | 515 kts | 25° |
| 2026-04-29 00:46 | 30.78262 | 8.62044 | 35899 ft | 515 kts | 25° |
| 2026-04-29 00:46 | 30.84441 | 8.66257 | 35940 ft | 514 kts | 25° |
| 2026-04-29 00:47 | 30.90631 | 8.70457 | 35902 ft | 515 kts | 25° |
| 2026-04-29 00:47 | 30.96772 | 8.74656 | 35918 ft | 515 kts | 25° |
| 2026-04-29 00:48 | 31.03003 | 8.78895 | 35912 ft | 515 kts | 25° |
| 2026-04-29 00:48 | 31.08126 | 8.82408 | 35921 ft | 515 kts | 25° |
| 2026-04-29 00:49 | 31.15318 | 8.87320 | 35923 ft | 515 kts | 25° |
| 2026-04-29 00:49 | 31.21475 | 8.91560 | 35920 ft | 515 kts | 25° |
| 2026-04-29 00:50 | 31.26655 | 8.95105 | 35925 ft | 514 kts | 25° |
| 2026-04-29 00:50 | 31.32824 | 8.99357 | 35930 ft | 514 kts | 25° |
| 2026-04-29 00:51 | 31.38998 | 9.03598 | 35926 ft | 514 kts | 25° |
| 2026-04-29 00:51 | 31.45128 | 9.07840 | 35929 ft | 515 kts | 25° |
| 2026-04-29 00:52 | 31.51303 | 9.12092 | 35931 ft | 514 kts | 25° |
| 2026-04-29 00:52 | 31.57499 | 9.16394 | 35927 ft | 514 kts | 25° |
| 2026-04-29 00:53 | 31.63669 | 9.20655 | 35925 ft | 515 kts | 25° |
| 2026-04-29 00:53 | 31.69901 | 9.24569 | 35916 ft | 503 kts | 10° |
| 2026-04-29 00:53 | 31.73281 | 9.25336 | 35953 ft | 490 kts | 357° |
| 2026-04-29 00:54 | 31.76652 | 9.25352 | 35942 ft | 482 kts | 351° |
| 2026-04-29 00:54 | 31.83380 | 9.25225 | 35928 ft | 485 kts | 352° |
| 2026-04-29 00:55 | 31.90120 | 9.25058 | 35929 ft | 483 kts | 351° |
| 2026-04-29 00:55 | 31.96856 | 9.24945 | 35926 ft | 484 kts | 352° |
| 2026-04-29 00:56 | 32.03585 | 9.24787 | 35921 ft | 483 kts | 351° |
| 2026-04-29 00:56 | 32.10309 | 9.24671 | 35914 ft | 484 kts | 352° |
| 2026-04-29 00:57 | 32.17013 | 9.24515 | 35918 ft | 481 kts | 351° |
| 2026-04-29 00:57 | 32.23718 | 9.24396 | 35922 ft | 482 kts | 352° |
| 2026-04-29 00:58 | 32.30410 | 9.24241 | 35927 ft | 480 kts | 351° |
| 2026-04-29 00:58 | 32.37089 | 9.24123 | 35928 ft | 480 kts | 352° |
| 2026-04-29 00:59 | 32.43704 | 9.23968 | 35922 ft | 478 kts | 351° |
| 2026-04-29 00:59 | 32.50372 | 9.23849 | 35921 ft | 480 kts | 352° |
| 2026-04-29 01:00 | 32.57045 | 9.23694 | 35918 ft | 478 kts | 351° |
| 2026-04-29 01:00 | 32.63711 | 9.23574 | 35912 ft | 480 kts | 351° |
| 2026-04-29 01:01 | 32.70376 | 9.23420 | 35918 ft | 479 kts | 351° |
| 2026-04-29 01:01 | 32.77049 | 9.23299 | 35926 ft | 480 kts | 351° |
| 2026-04-29 01:02 | 32.83711 | 9.23143 | 35918 ft | 478 kts | 351° |
| 2026-04-29 01:02 | 32.90375 | 9.23023 | 35923 ft | 479 kts | 351° |
| 2026-04-29 01:03 | 32.97030 | 9.22867 | 35921 ft | 479 kts | 351° |
| 2026-04-29 01:03 | 33.03717 | 9.22747 | 35913 ft | 479 kts | 351° |
| 2026-04-29 01:04 | 33.10368 | 9.22588 | 35911 ft | 478 kts | 351° |
| 2026-04-29 01:04 | 33.16986 | 9.22471 | 35919 ft | 478 kts | 351° |
| 2026-04-29 01:05 | 33.23669 | 9.22310 | 35922 ft | 478 kts | 351° |
| 2026-04-29 01:05 | 33.30276 | 9.22194 | 35932 ft | 477 kts | 351° |
| 2026-04-29 01:06 | 33.36902 | 9.22034 | 35938 ft | 477 kts | 351° |
| 2026-04-29 01:06 | 33.43553 | 9.21913 | 35934 ft | 477 kts | 350° |
| 2026-04-29 01:07 | 33.50203 | 9.21756 | 35928 ft | 478 kts | 351° |
| 2026-04-29 01:07 | 33.56846 | 9.21630 | 35935 ft | 478 kts | 350° |
| 2026-04-29 01:08 | 33.63498 | 9.21480 | 35943 ft | 478 kts | 350° |
| 2026-04-29 01:08 | 33.69959 | 9.21352 | 35941 ft | 477 kts | 350° |
| 2026-04-29 01:09 | 33.76592 | 9.21205 | 35929 ft | 478 kts | 350° |
| 2026-04-29 01:09 | 33.83243 | 9.21068 | 35942 ft | 478 kts | 350° |
| 2026-04-29 01:10 | 33.89888 | 9.20927 | 35944 ft | 478 kts | 350° |
| 2026-04-29 01:10 | 33.96542 | 9.20781 | 35947 ft | 478 kts | 350° |
| 2026-04-29 01:11 | 34.03208 | 9.20647 | 35946 ft | 478 kts | 350° |
| 2026-04-29 01:11 | 34.09853 | 9.20494 | 35944 ft | 478 kts | 350° |
| 2026-04-29 01:12 | 34.16509 | 9.20366 | 35951 ft | 478 kts | 350° |
| 2026-04-29 01:12 | 34.23154 | 9.20158 | 35946 ft | 476 kts | 348° |
| 2026-04-29 01:13 | 34.29775 | 9.19806 | 35964 ft | 477 kts | 349° |
| 2026-04-29 01:13 | 34.36393 | 9.19467 | 35958 ft | 475 kts | 348° |
| 2026-04-29 01:14 | 34.43010 | 9.19099 | 35973 ft | 477 kts | 349° |
| 2026-04-29 01:14 | 34.49618 | 9.18761 | 35977 ft | 475 kts | 348° |
| 2026-04-29 01:15 | 34.56242 | 9.18390 | 35979 ft | 477 kts | 349° |
| 2026-04-29 01:15 | 34.62856 | 9.18048 | 35985 ft | 475 kts | 348° |
| 2026-04-29 01:16 | 34.69470 | 9.17683 | 35977 ft | 476 kts | 348° |
| 2026-04-29 01:16 | 34.76074 | 9.17330 | 35978 ft | 475 kts | 348° |
| 2026-04-29 01:17 | 34.82681 | 9.16973 | 35984 ft | 476 kts | 348° |
| 2026-04-29 01:17 | 34.89229 | 9.16383 | 36000 ft | 466 kts | 343° |
| 2026-04-29 01:18 | 34.95688 | 9.15381 | 35983 ft | 469 kts | 345° |
| 2026-04-29 01:18 | 35.05333 | 9.13974 | 35991 ft | 467 kts | 343° |
| 2026-04-29 01:19 | 35.11851 | 9.13092 | 35984 ft | 469 kts | 344° |
| 2026-04-29 01:19 | 35.18258 | 9.12095 | 35988 ft | 467 kts | 343° |
| 2026-04-29 01:20 | 35.24725 | 9.11202 | 35993 ft | 468 kts | 344° |
| 2026-04-29 01:20 | 35.31159 | 9.10209 | 36000 ft | 466 kts | 343° |
| 2026-04-29 01:21 | 35.37612 | 9.09307 | 36002 ft | 467 kts | 344° |
| 2026-04-29 01:21 | 35.44062 | 9.08315 | 36006 ft | 467 kts | 343° |
| 2026-04-29 01:22 | 35.50526 | 9.07403 | 36000 ft | 468 kts | 344° |
| 2026-04-29 01:22 | 35.56983 | 9.06417 | 35995 ft | 469 kts | 345° |
| 2026-04-29 01:23 | 35.63514 | 9.05689 | 35997 ft | 471 kts | 346° |
| 2026-04-29 01:23 | 35.70006 | 9.04785 | 35999 ft | 470 kts | 345° |
| 2026-04-29 01:24 | 35.76533 | 9.04029 | 35993 ft | 471 kts | 346° |
| 2026-04-29 01:24 | 35.83036 | 9.03138 | 35993 ft | 470 kts | 345° |
| 2026-04-29 01:25 | 35.89562 | 9.02361 | 35988 ft | 471 kts | 346° |
| 2026-04-29 01:25 | 35.96077 | 9.01486 | 35976 ft | 470 kts | 345° |
| 2026-04-29 01:26 | 36.02601 | 9.00691 | 35977 ft | 471 kts | 346° |
| 2026-04-29 01:26 | 36.09118 | 8.99821 | 35977 ft | 471 kts | 345° |
| 2026-04-29 01:27 | 36.15650 | 8.99019 | 35970 ft | 472 kts | 346° |
| 2026-04-29 01:27 | 36.22178 | 8.98150 | 35968 ft | 471 kts | 346° |
| 2026-04-29 01:28 | 36.28665 | 8.97346 | 35967 ft | 472 kts | 346° |
| 2026-04-29 01:28 | 36.35229 | 8.96472 | 35955 ft | 472 kts | 346° |
| 2026-04-29 01:29 | 36.41763 | 8.95658 | 35955 ft | 472 kts | 346° |
| 2026-04-29 01:29 | 36.48304 | 8.94785 | 35957 ft | 473 kts | 346° |
| 2026-04-29 01:30 | 36.54841 | 8.93967 | 35957 ft | 472 kts | 346° |
| 2026-04-29 01:30 | 36.61378 | 8.93094 | 35956 ft | 473 kts | 347° |
| 2026-04-29 01:31 | 36.67871 | 8.92274 | 35948 ft | 474 kts | 347° |
| 2026-04-29 01:31 | 36.74428 | 8.91403 | 35933 ft | 475 kts | 347° |
| 2026-04-29 01:32 | 36.80960 | 8.90567 | 35914 ft | 475 kts | 347° |
| 2026-04-29 01:32 | 36.87540 | 8.89698 | 35924 ft | 475 kts | 347° |
| 2026-04-29 01:33 | 36.94115 | 8.88847 | 35910 ft | 475 kts | 347° |
| 2026-04-29 01:33 | 37.00734 | 8.88313 | 35932 ft | 481 kts | 354° |
| 2026-04-29 01:34 | 37.07432 | 8.88409 | 35903 ft | 480 kts | 353° |
| 2026-04-29 01:34 | 37.14106 | 8.88311 | 35924 ft | 481 kts | 354° |
| 2026-04-29 01:35 | 37.19669 | 8.88412 | 35907 ft | 480 kts | 354° |
| 2026-04-29 01:35 | 37.27438 | 8.88317 | 35902 ft | 481 kts | 355° |
| 2026-04-29 01:36 | 37.33041 | 8.88404 | 35901 ft | 480 kts | 354° |
| 2026-04-29 01:36 | 37.39583 | 8.88317 | 35900 ft | 480 kts | 354° |
| 2026-04-29 01:37 | 37.46278 | 8.88398 | 35908 ft | 480 kts | 354° |
| 2026-04-29 01:37 | 37.52921 | 8.88323 | 35914 ft | 480 kts | 354° |
| 2026-04-29 01:38 | 37.59664 | 8.88393 | 35913 ft | 480 kts | 354° |
| 2026-04-29 01:38 | 37.66386 | 8.88328 | 35911 ft | 480 kts | 355° |
| 2026-04-29 01:39 | 37.73073 | 8.88389 | 35915 ft | 479 kts | 354° |
| 2026-04-29 01:39 | 37.79741 | 8.88331 | 35917 ft | 480 kts | 355° |
| 2026-04-29 01:40 | 37.86433 | 8.88387 | 35919 ft | 480 kts | 355° |
| 2026-04-29 01:40 | 37.93101 | 8.88334 | 35917 ft | 480 kts | 355° |
| 2026-04-29 01:41 | 37.99773 | 8.88384 | 35927 ft | 479 kts | 355° |
| 2026-04-29 01:41 | 38.06392 | 8.88339 | 35932 ft | 479 kts | 355° |
| 2026-04-29 01:42 | 38.13115 | 8.88380 | 35937 ft | 478 kts | 355° |
| 2026-04-29 01:42 | 38.19758 | 8.88343 | 35943 ft | 477 kts | 356° |
| 2026-04-29 01:43 | 38.26393 | 8.88376 | 35944 ft | 476 kts | 355° |
| 2026-04-29 01:43 | 38.33028 | 8.88347 | 35941 ft | 477 kts | 356° |
| 2026-04-29 01:44 | 38.39652 | 8.88372 | 35940 ft | 476 kts | 355° |
| 2026-04-29 01:44 | 38.46269 | 8.88353 | 35947 ft | 475 kts | 356° |
| 2026-04-29 01:45 | 38.52884 | 8.88387 | 35947 ft | 475 kts | 358° |
| 2026-04-29 01:45 | 38.59497 | 8.89133 | 35949 ft | 477 kts | 1° |
| 2026-04-29 01:46 | 38.66102 | 8.89746 | 35966 ft | 476 kts | 0° |
| 2026-04-29 01:46 | 38.72663 | 8.90535 | 35967 ft | 475 kts | 1° |
| 2026-04-29 01:47 | 38.79247 | 8.91166 | 35969 ft | 475 kts | 0° |
| 2026-04-29 01:47 | 38.85822 | 8.91945 | 35974 ft | 475 kts | 1° |
| 2026-04-29 01:48 | 38.92443 | 8.92594 | 35981 ft | 475 kts | 1° |
| 2026-04-29 01:48 | 38.98936 | 8.93357 | 35980 ft | 475 kts | 1° |
| 2026-04-29 01:49 | 39.05558 | 8.94018 | 35981 ft | 476 kts | 1° |
| 2026-04-29 01:49 | 39.12148 | 8.94786 | 35975 ft | 476 kts | 1° |
| 2026-04-29 01:50 | 39.18743 | 8.95455 | 35969 ft | 474 kts | 1° |
| 2026-04-29 01:50 | 39.25271 | 8.96213 | 35974 ft | 474 kts | 1° |
| 2026-04-29 01:51 | 39.31701 | 8.96870 | 35976 ft | 473 kts | 1° |
| 2026-04-29 01:51 | 39.38251 | 8.97350 | 35981 ft | 468 kts | 354° |
| 2026-04-29 01:52 | 39.44770 | 8.96783 | 35980 ft | 470 kts | 354° |
| 2026-04-29 01:52 | 39.51321 | 8.96499 | 35980 ft | 470 kts | 354° |
| 2026-04-29 01:53 | 39.57855 | 8.95943 | 35980 ft | 471 kts | 354° |
| 2026-04-29 01:53 | 39.64407 | 8.95630 | 35989 ft | 470 kts | 354° |
| 2026-04-29 01:54 | 39.70919 | 8.95100 | 35997 ft | 470 kts | 355° |
| 2026-04-29 01:54 | 39.77470 | 8.94762 | 36001 ft | 471 kts | 354° |
| 2026-04-29 01:55 | 39.84027 | 8.94249 | 36004 ft | 473 kts | 355° |
| 2026-04-29 01:55 | 39.90542 | 8.93895 | 36006 ft | 472 kts | 355° |
| 2026-04-29 01:56 | 39.97104 | 8.93394 | 36010 ft | 471 kts | 355° |
| 2026-04-29 01:56 | 40.03652 | 8.93021 | 36012 ft | 470 kts | 355° |
| 2026-04-29 01:57 | 40.10203 | 8.92534 | 36012 ft | 471 kts | 355° |
| 2026-04-29 01:57 | 40.16695 | 8.92149 | 36020 ft | 472 kts | 355° |
| 2026-04-29 01:58 | 40.23243 | 8.91673 | 35997 ft | 472 kts | 356° |
| 2026-04-29 01:58 | 40.29797 | 8.91271 | 36019 ft | 471 kts | 355° |
| 2026-04-29 01:59 | 40.36060 | 8.90822 | 35989 ft | 471 kts | 356° |
| 2026-04-29 01:59 | 40.42611 | 8.90411 | 36037 ft | 470 kts | 355° |
| 2026-04-29 02:00 | 40.49151 | 8.89950 | 35998 ft | 471 kts | 356° |
| 2026-04-29 02:00 | 40.55590 | 8.89536 | 36037 ft | 471 kts | 355° |
| 2026-04-29 02:01 | 40.62127 | 8.89083 | 36010 ft | 469 kts | 356° |
| 2026-04-29 02:01 | 40.68646 | 8.88651 | 35995 ft | 471 kts | 355° |
| 2026-04-29 02:02 | 40.75200 | 8.88206 | 36008 ft | 471 kts | 356° |
| 2026-04-29 02:02 | 40.81761 | 8.87759 | 36014 ft | 472 kts | 355° |
| 2026-04-29 02:03 | 40.88307 | 8.87324 | 36010 ft | 471 kts | 356° |
| 2026-04-29 02:03 | 40.94858 | 8.86866 | 35998 ft | 470 kts | 355° |
| 2026-04-29 02:04 | 41.01392 | 8.86437 | 36008 ft | 471 kts | 356° |
| 2026-04-29 02:04 | 41.07944 | 8.85971 | 36011 ft | 472 kts | 355° |
| 2026-04-29 02:05 | 41.14501 | 8.85543 | 35991 ft | 472 kts | 355° |
| 2026-04-29 02:05 | 41.21056 | 8.85074 | 36006 ft | 471 kts | 355° |
| 2026-04-29 02:06 | 41.27477 | 8.83844 | 36049 ft | 465 kts | 339° |
| 2026-04-29 02:06 | 41.33681 | 8.81323 | 36023 ft | 469 kts | 353° |
| 2026-04-29 02:07 | 41.40257 | 8.81652 | 35990 ft | 473 kts | 1° |
| 2026-04-29 02:07 | 41.46823 | 8.81857 | 36024 ft | 472 kts | 0° |
| 2026-04-29 02:08 | 41.53390 | 8.82343 | 36015 ft | 472 kts | 1° |
| 2026-04-29 02:08 | 41.59943 | 8.82565 | 36014 ft | 471 kts | 0° |
| 2026-04-29 02:09 | 41.66491 | 8.83022 | 36016 ft | 472 kts | 1° |
| 2026-04-29 02:09 | 41.73053 | 8.83271 | 36022 ft | 472 kts | 0° |
| 2026-04-29 02:10 | 41.79624 | 8.83711 | 36021 ft | 472 kts | 1° |
| 2026-04-29 02:10 | 41.86151 | 8.83977 | 36036 ft | 472 kts | 0° |
| 2026-04-29 02:11 | 41.92714 | 8.84400 | 36026 ft | 472 kts | 0° |
| 2026-04-29 02:11 | 41.99272 | 8.84683 | 36034 ft | 471 kts | 0° |
| 2026-04-29 02:12 | 42.05820 | 8.85098 | 36028 ft | 472 kts | 0° |
| 2026-04-29 02:12 | 42.12324 | 8.85388 | 36023 ft | 472 kts | 0° |
| 2026-04-29 02:13 | 42.18836 | 8.85793 | 36025 ft | 472 kts | 0° |
| 2026-04-29 02:13 | 42.25269 | 8.86090 | 36021 ft | 472 kts | 0° |
| 2026-04-29 02:14 | 42.31823 | 8.86490 | 36016 ft | 472 kts | 0° |
| 2026-04-29 02:14 | 42.38396 | 8.86803 | 36006 ft | 472 kts | 0° |
| 2026-04-29 02:15 | 42.44958 | 8.87200 | 36002 ft | 472 kts | 0° |
| 2026-04-29 02:15 | 42.51489 | 8.87516 | 36008 ft | 471 kts | 0° |
| 2026-04-29 02:16 | 42.58047 | 8.87913 | 36002 ft | 472 kts | 0° |
| 2026-04-29 02:16 | 42.64613 | 8.88233 | 35999 ft | 472 kts | 0° |
| 2026-04-29 02:17 | 42.71172 | 8.88626 | 36008 ft | 472 kts | 360° |
| 2026-04-29 02:17 | 42.77738 | 8.88956 | 36012 ft | 472 kts | 0° |
| 2026-04-29 02:18 | 42.84281 | 8.89584 | 36014 ft | 473 kts | 3° |
| 2026-04-29 02:18 | 42.90856 | 8.90274 | 36013 ft | 473 kts | 2° |
| 2026-04-29 02:19 | 42.97096 | 8.91056 | 36019 ft | 473 kts | 3° |
| 2026-04-29 02:19 | 43.03532 | 8.91758 | 36019 ft | 471 kts | 2° |
| 2026-04-29 02:20 | 43.10177 | 8.92580 | 36015 ft | 472 kts | 3° |
| 2026-04-29 02:20 | 43.16662 | 8.93295 | 36023 ft | 471 kts | 2° |
| 2026-04-29 02:21 | 43.23261 | 8.94113 | 36022 ft | 471 kts | 2° |
| 2026-04-29 02:21 | 43.29799 | 8.94796 | 36021 ft | 471 kts | 1° |
| 2026-04-29 02:22 | 43.35256 | 8.95439 | 36025 ft | 471 kts | 2° |
| 2026-04-29 02:22 | 43.41799 | 8.95837 | 36045 ft | 468 kts | 355° |
| 2026-04-29 02:23 | 43.48327 | 8.95817 | 36028 ft | 470 kts | 359° |
| 2026-04-29 02:23 | 43.54861 | 8.95850 | 36039 ft | 469 kts | 356° |
| 2026-04-29 02:24 | 43.61396 | 8.95818 | 36042 ft | 470 kts | 358° |
| 2026-04-29 02:25 | 43.71174 | 8.96138 | 36038 ft | 470 kts | 358° |
| 2026-04-29 02:25 | 43.77721 | 8.96509 | 36053 ft | 470 kts | 360° |
| 2026-04-29 02:26 | 43.84249 | 8.96753 | 36047 ft | 469 kts | 358° |
| 2026-04-29 02:26 | 43.90776 | 8.97113 | 36056 ft | 469 kts | 360° |
| 2026-04-29 02:27 | 43.97298 | 8.97364 | 36037 ft | 469 kts | 358° |
| 2026-04-29 02:27 | 44.03820 | 8.97722 | 36043 ft | 468 kts | 359° |
| 2026-04-29 02:28 | 44.09703 | 8.97956 | 36051 ft | 468 kts | 358° |
| 2026-04-29 02:28 | 44.16225 | 8.98297 | 36049 ft | 469 kts | 359° |
| 2026-04-29 02:29 | 44.22598 | 8.98564 | 36063 ft | 469 kts | 358° |
| 2026-04-29 02:29 | 44.29046 | 8.98901 | 36052 ft | 469 kts | 359° |
| 2026-04-29 02:30 | 44.35570 | 8.99179 | 36057 ft | 469 kts | 358° |
| 2026-04-29 02:30 | 44.42003 | 8.99516 | 36061 ft | 470 kts | 359° |
| 2026-04-29 02:31 | 44.48546 | 8.99794 | 36061 ft | 470 kts | 358° |
| 2026-04-29 02:31 | 44.55087 | 9.00141 | 36063 ft | 470 kts | 359° |
| 2026-04-29 02:32 | 44.61612 | 9.00417 | 36065 ft | 470 kts | 358° |
| 2026-04-29 02:32 | 44.68106 | 9.00762 | 36075 ft | 470 kts | 359° |
| 2026-04-29 02:33 | 44.74384 | 9.01033 | 36080 ft | 470 kts | 358° |
| 2026-04-29 02:33 | 44.80879 | 9.01372 | 36075 ft | 470 kts | 358° |
| 2026-04-29 02:34 | 44.87336 | 9.01661 | 36077 ft | 470 kts | 358° |
| 2026-04-29 02:34 | 44.93468 | 9.01977 | 36077 ft | 469 kts | 358° |
| 2026-04-29 02:35 | 45.00076 | 9.02278 | 36082 ft | 468 kts | 358° |
| 2026-04-29 02:35 | 45.06575 | 9.02612 | 36080 ft | 468 kts | 358° |
| 2026-04-29 02:36 | 45.10239 | 9.02775 | 36081 ft | 467 kts | 358° |
| 2026-04-29 02:36 | 45.16607 | 9.03100 | 36076 ft | 467 kts | 358° |
| 2026-04-29 02:37 | 45.23185 | 9.03403 | 36066 ft | 467 kts | 358° |
| 2026-04-29 02:37 | 45.29657 | 9.03740 | 36062 ft | 466 kts | 358° |
| 2026-04-29 02:38 | 45.36154 | 9.04036 | 36072 ft | 467 kts | 358° |
| 2026-04-29 02:38 | 45.42605 | 9.04378 | 36071 ft | 467 kts | 358° |
| 2026-04-29 02:39 | 45.45861 | 9.04522 | 36075 ft | 467 kts | 358° |
| 2026-04-29 02:39 | 45.52211 | 9.04844 | 36078 ft | 467 kts | 358° |
| 2026-04-29 02:40 | 45.56569 | 9.05062 | 36077 ft | 467 kts | 358° |
| 2026-04-29 02:40 | 45.61402 | 9.05280 | 36074 ft | 467 kts | 358° |
| 2026-04-29 02:41 | 45.67875 | 9.05626 | 36072 ft | 467 kts | 358° |
| 2026-04-29 02:41 | 45.73641 | 9.05890 | 36081 ft | 467 kts | 358° |
| 2026-04-29 02:42 | 45.79847 | 9.06213 | 36046 ft | 467 kts | 357° |
| 2026-04-29 02:42 | 45.86264 | 9.06520 | 36092 ft | 466 kts | 358° |
| 2026-04-29 02:43 | 45.92511 | 9.06854 | 36106 ft | 467 kts | 357° |
| 2026-04-29 02:43 | 45.98949 | 9.07059 | 36105 ft | 463 kts | 352° |
| 2026-04-29 02:44 | 46.05310 | 9.05955 | 36095 ft | 461 kts | 348° |
| 2026-04-29 02:44 | 46.11102 | 9.05119 | 36108 ft | 462 kts | 350° |
| 2026-04-29 02:45 | 46.17485 | 9.04163 | 36099 ft | 463 kts | 354° |
| 2026-04-29 02:45 | 46.23863 | 9.04011 | 36100 ft | 464 kts | 353° |
| 2026-04-29 02:46 | 46.29185 | 9.03647 | 36106 ft | 463 kts | 353° |
| 2026-04-29 02:46 | 46.36494 | 9.03456 | 36105 ft | 463 kts | 353° |
| 2026-04-29 02:47 | 46.42842 | 9.03062 | 36117 ft | 463 kts | 353° |
| 2026-04-29 02:47 | 46.49375 | 9.02888 | 36115 ft | 463 kts | 353° |
| 2026-04-29 02:48 | 46.55602 | 9.02520 | 36114 ft | 462 kts | 353° |
| 2026-04-29 02:48 | 46.62048 | 9.02322 | 35631 ft | 462 kts | 356° |
| 2026-04-29 02:48 | 46.65134 | 9.02143 | 35732 ft | 465 kts | 357° |
| 2026-04-29 02:49 | 46.68482 | 9.01971 | 35845 ft | 468 kts | 358° |
| 2026-04-29 02:49 | 46.71722 | 9.01870 | 35975 ft | 471 kts | 359° |
| 2026-04-29 02:49 | 46.74909 | 9.01750 | 36007 ft | 476 kts | 358° |
| 2026-04-29 02:50 | 46.81658 | 9.01398 | 36005 ft | 478 kts | 358° |
| 2026-04-29 02:50 | 46.88133 | 9.01165 | 36004 ft | 479 kts | 358° |
| 2026-04-29 02:51 | 46.94775 | 9.00823 | 36009 ft | 478 kts | 358° |
| 2026-04-29 02:51 | 47.01288 | 9.00580 | 36009 ft | 478 kts | 358° |
| 2026-04-29 02:52 | 47.07823 | 9.00247 | 36004 ft | 478 kts | 358° |
| 2026-04-29 02:52 | 47.14335 | 9.00000 | 36005 ft | 477 kts | 358° |
| 2026-04-29 02:53 | 47.20992 | 8.99663 | 35999 ft | 477 kts | 358° |
| 2026-04-29 02:53 | 47.27610 | 8.99403 | 36006 ft | 477 kts | 358° |
| 2026-04-29 02:54 | 47.31923 | 8.99169 | 36012 ft | 477 kts | 358° |
| 2026-04-29 02:54 | 47.39273 | 8.98885 | 36009 ft | 477 kts | 358° |
| 2026-04-29 02:55 | 47.45866 | 8.98546 | 36013 ft | 477 kts | 358° |
| 2026-04-29 02:55 | 47.51357 | 8.98342 | 36004 ft | 477 kts | 358° |
| 2026-04-29 02:56 | 47.57766 | 8.98007 | 36005 ft | 477 kts | 358° |
| 2026-04-29 02:56 | 47.64437 | 8.97749 | 36005 ft | 477 kts | 358° |
| 2026-04-29 02:57 | 47.71045 | 8.97405 | 36007 ft | 477 kts | 358° |
| 2026-04-29 02:57 | 47.77680 | 8.97146 | 36011 ft | 477 kts | 358° |
| 2026-04-29 02:58 | 47.84324 | 8.96803 | 36006 ft | 478 kts | 358° |
| 2026-04-29 02:58 | 47.90897 | 8.96539 | 36012 ft | 478 kts | 358° |
| 2026-04-29 02:59 | 47.97299 | 8.96208 | 36011 ft | 479 kts | 358° |
| 2026-04-29 02:59 | 48.03868 | 8.95941 | 36006 ft | 479 kts | 358° |
| 2026-04-29 03:00 | 48.10251 | 8.95614 | 36005 ft | 478 kts | 358° |
| 2026-04-29 03:00 | 48.15386 | 8.95415 | 36009 ft | 478 kts | 358° |
| 2026-04-29 03:01 | 48.20072 | 8.95802 | 36021 ft | 477 kts | 7° |
| 2026-04-29 03:01 | 48.26693 | 8.96897 | 36006 ft | 478 kts | 4° |
| 2026-04-29 03:02 | 48.33323 | 8.97808 | 36003 ft | 478 kts | 7° |
| 2026-04-29 03:02 | 48.39734 | 8.98880 | 36010 ft | 478 kts | 5° |
| 2026-04-29 03:03 | 48.46327 | 8.99787 | 36009 ft | 478 kts | 6° |
| 2026-04-29 03:03 | 48.52947 | 9.00889 | 36013 ft | 479 kts | 5° |
| 2026-04-29 03:04 | 48.59478 | 9.01799 | 36013 ft | 479 kts | 6° |
| 2026-04-29 03:04 | 48.66167 | 9.03218 | 36006 ft | 478 kts | 8° |
| 2026-04-29 03:05 | 48.72664 | 9.04648 | 36009 ft | 478 kts | 8° |
| 2026-04-29 03:05 | 48.79112 | 9.06294 | 36011 ft | 478 kts | 9° |
| 2026-04-29 03:06 | 48.79560 | 9.06401 | 36014 ft | 478 kts | 8° |
| 2026-04-29 05:12 | 48.83190 | 9.07211 | 36007 ft | 478 kts | 8° |
| 2026-04-29 05:12 | 48.86972 | 9.08088 | 36007 ft | 478 kts | 9° |
| 2026-04-29 05:13 | 48.92840 | 9.09019 | 35996 ft | 478 kts | 5° |
| 2026-04-29 05:13 | 48.99185 | 9.10035 | 36008 ft | 478 kts | 6° |
| 2026-04-29 05:14 | 49.04788 | 9.10768 | 36005 ft | 478 kts | 4° |
| 2026-04-29 05:14 | 49.10880 | 9.11656 | 36008 ft | 478 kts | 6° |
| 2026-04-29 05:15 | 49.17450 | 9.12594 | 36012 ft | 478 kts | 4° |
| 2026-04-29 05:15 | 49.24100 | 9.13548 | 36009 ft | 479 kts | 6° |
| 2026-04-29 05:16 | 49.30651 | 9.14899 | 36012 ft | 478 kts | 12° |
| 2026-04-29 05:16 | 49.36979 | 9.17272 | 36004 ft | 478 kts | 13° |
| 2026-04-29 05:17 | 49.42962 | 9.19269 | 36003 ft | 478 kts | 12° |
| 2026-04-29 05:17 | 49.49280 | 9.21624 | 36010 ft | 478 kts | 13° |
| 2026-04-29 05:18 | 49.55437 | 9.23727 | 36010 ft | 478 kts | 12° |
| 2026-04-29 05:18 | 49.62062 | 9.26178 | 36006 ft | 479 kts | 13° |
| 2026-04-29 05:19 | 49.66817 | 9.27842 | 36011 ft | 479 kts | 12° |
| 2026-04-29 05:19 | 49.73102 | 9.30093 | 36007 ft | 479 kts | 14° |
| 2026-04-29 05:20 | 49.79537 | 9.32421 | 36007 ft | 479 kts | 12° |
| 2026-04-29 05:20 | 49.85769 | 9.34516 | 35989 ft | 478 kts | 6° |
| 2026-04-29 05:20 | 49.89145 | 9.34392 | 36060 ft | 476 kts | 352° |
| 2026-04-29 05:21 | 49.92438 | 9.33640 | 35977 ft | 481 kts | 352° |
| 2026-04-29 05:21 | 49.99076 | 9.32627 | 36004 ft | 477 kts | 354° |
| 2026-04-29 05:22 | 50.05367 | 9.31332 | 36003 ft | 478 kts | 352° |
| 2026-04-29 05:22 | 50.11838 | 9.30295 | 36004 ft | 477 kts | 354° |
| 2026-04-29 05:23 | 50.17556 | 9.29101 | 36004 ft | 476 kts | 346° |
| 2026-04-29 05:23 | 50.21374 | 9.26363 | 36061 ft | 475 kts | 323° |
| 2026-04-29 05:23 | 50.23341 | 9.23674 | 35909 ft | 467 kts | 313° |
| 2026-04-29 05:24 | 50.24726 | 9.20853 | 35286 ft | 469 kts | 299° |
| 2026-04-29 05:24 | 50.25932 | 9.16510 | 34666 ft | 467 kts | 288° |
| 2026-04-29 05:24 | 50.26547 | 9.11864 | 34156 ft | 462 kts | 271° |
| 2026-04-29 05:24 | 50.26187 | 9.07007 | 33716 ft | 455 kts | 255° |
| 2026-04-29 05:25 | 50.25306 | 9.02998 | 33209 ft | 453 kts | 248° |
| 2026-04-29 05:25 | 50.24115 | 8.98515 | 32611 ft | 451 kts | 247° |
| 2026-04-29 05:25 | 50.23116 | 8.94484 | 32246 ft | 446 kts | 250° |
| 2026-04-29 05:25 | 50.22459 | 8.91440 | 31904 ft | 444 kts | 252° |
| 2026-04-29 05:26 | 50.21659 | 8.87654 | 31433 ft | 442 kts | 251° |
| 2026-04-29 05:26 | 50.20669 | 8.83450 | 30178 ft | 453 kts | 248° |
| 2026-04-29 05:26 | 50.19493 | 8.78904 | 28436 ft | 476 kts | 248° |
| 2026-04-29 05:26 | 50.18358 | 8.74180 | 27180 ft | 485 kts | 250° |
| 2026-04-29 05:27 | 50.17467 | 8.70078 | 26548 ft | 479 kts | 251° |
| 2026-04-29 05:27 | 50.15197 | 8.60680 | 24314 ft | 482 kts | 248° |
| 2026-04-29 05:27 | 50.14162 | 8.56586 | 23923 ft | 468 kts | 249° |
| 2026-04-29 05:28 | 50.13036 | 8.51627 | 22780 ft | 469 kts | 251° |
| 2026-04-29 05:28 | 50.12013 | 8.47044 | 22112 ft | 461 kts | 250° |
| 2026-04-29 05:28 | 50.11065 | 8.43192 | 21459 ft | 455 kts | 248° |
| 2026-04-29 05:28 | 50.09982 | 8.38987 | 20638 ft | 453 kts | 248° |
| 2026-04-29 05:29 | 50.09310 | 8.36266 | 20193 ft | 449 kts | 249° |
| 2026-04-29 05:29 | 50.08596 | 8.33205 | 19675 ft | 445 kts | 250° |
| 2026-04-29 05:29 | 50.07266 | 8.27483 | 18642 ft | 439 kts | 249° |
| 2026-04-29 05:29 | 50.06150 | 8.23054 | 17878 ft | 433 kts | 248° |
| 2026-04-29 05:30 | 50.05118 | 8.18954 | 17158 ft | 429 kts | 249° |
| 2026-04-29 05:30 | 50.04073 | 8.14535 | 16391 ft | 424 kts | 250° |
| 2026-04-29 05:30 | 50.03057 | 8.10266 | 15666 ft | 420 kts | 249° |
| 2026-04-29 05:30 | 50.01973 | 8.05962 | 14962 ft | 415 kts | 248° |
| 2026-04-29 05:31 | 50.00961 | 8.01887 | 14295 ft | 411 kts | 249° |
| 2026-04-29 05:31 | 50.00037 | 7.97994 | 13677 ft | 408 kts | 250° |
| 2026-04-29 05:31 | 49.99051 | 7.93913 | 13015 ft | 403 kts | 249° |
| 2026-04-29 05:31 | 49.98055 | 7.89964 | 12387 ft | 400 kts | 248° |
| 2026-04-29 05:32 | 49.97353 | 7.87149 | 11998 ft | 397 kts | 249° |
| 2026-04-29 05:32 | 49.96407 | 7.83235 | 12034 ft | 377 kts | 249° |
| 2026-04-29 05:32 | 49.95661 | 7.80172 | 11952 ft | 365 kts | 249° |
| 2026-04-29 05:32 | 49.95031 | 7.77659 | 12033 ft | 350 kts | 248° |
| 2026-04-29 05:33 | 49.94008 | 7.74260 | 11942 ft | 333 kts | 236° |
| 2026-04-29 05:33 | 49.92495 | 7.71865 | 12021 ft | 315 kts | 215° |
| 2026-04-29 05:33 | 49.91230 | 7.70814 | 12003 ft | 306 kts | 201° |
| 2026-04-29 05:33 | 49.89465 | 7.70174 | 12269 ft | 260 kts | 187° |
| 2026-04-29 05:34 | 49.87787 | 7.70240 | 11804 ft | 245 kts | 171° |
| 2026-04-29 05:34 | 49.86135 | 7.71115 | 10959 ft | 249 kts | 153° |
| 2026-04-29 05:34 | 49.84721 | 7.72637 | 10262 ft | 246 kts | 138° |
| 2026-04-29 05:34 | 49.83649 | 7.74668 | 9558 ft | 244 kts | 122° |
| 2026-04-29 05:35 | 49.83154 | 7.76227 | 9089 ft | 243 kts | 111° |
| 2026-04-29 05:35 | 49.82740 | 7.79591 | 8194 ft | 240 kts | 91° |
| 2026-04-29 05:35 | 49.82829 | 7.81310 | 7749 ft | 239 kts | 81° |
| 2026-04-29 05:35 | 49.83323 | 7.83749 | 7085 ft | 237 kts | 65° |
| 2026-04-29 05:36 | 49.84191 | 7.85905 | 6435 ft | 234 kts | 53° |
| 2026-04-29 05:36 | 49.85139 | 7.87935 | 5979 ft | 226 kts | 56° |
| 2026-04-29 05:36 | 49.85978 | 7.89960 | 6017 ft | 231 kts | 58° |
| 2026-04-29 05:36 | 49.86858 | 7.92026 | 5994 ft | 229 kts | 55° |
| 2026-04-29 05:37 | 49.87722 | 7.93904 | 5998 ft | 233 kts | 54° |
| 2026-04-29 05:37 | 49.88643 | 7.95993 | 5997 ft | 232 kts | 57° |
| 2026-04-29 05:37 | 49.89510 | 7.98040 | 5999 ft | 233 kts | 56° |
| 2026-04-29 05:37 | 49.90425 | 8.00122 | 5998 ft | 234 kts | 55° |
| 2026-04-29 05:38 | 49.91422 | 8.02126 | 5997 ft | 234 kts | 49° |
| 2026-04-29 05:38 | 49.92209 | 8.03535 | 6000 ft | 233 kts | 51° |
| 2026-04-29 05:38 | 49.93084 | 8.05656 | 5989 ft | 234 kts | 66° |
| 2026-04-29 05:38 | 49.93630 | 8.08005 | 5835 ft | 237 kts | 72° |
| 2026-04-29 05:39 | 49.94105 | 8.10033 | 5560 ft | 233 kts | 68° |
| 2026-04-29 05:39 | 49.94708 | 8.12252 | 5265 ft | 232 kts | 67° |
| 2026-04-29 05:39 | 49.95274 | 8.14512 | 4969 ft | 231 kts | 71° |
| 2026-04-29 05:39 | 49.95793 | 8.16868 | 4658 ft | 229 kts | 71° |
| 2026-04-29 05:40 | 49.96342 | 8.19178 | 4347 ft | 229 kts | 69° |
| 2026-04-29 05:40 | 49.96916 | 8.21462 | 4068 ft | 228 kts | 69° |
| 2026-04-29 05:40 | 49.97461 | 8.23720 | 3781 ft | 226 kts | 70° |
| 2026-04-29 05:40 | 49.97987 | 8.25922 | 3477 ft | 225 kts | 69° |
| 2026-04-29 05:41 | 49.98261 | 8.27060 | 3352 ft | 221 kts | 70° |
| 2026-04-29 05:41 | 49.98765 | 8.29157 | 3081 ft | 210 kts | 70° |
| 2026-04-29 05:41 | 49.99231 | 8.31102 | 2820 ft | 216 kts | 70° |
| 2026-04-29 05:41 | 49.99747 | 8.33256 | 2518 ft | 210 kts | 70° |
| 2026-04-29 05:42 | 50.00257 | 8.35385 | 2243 ft | 211 kts | 70° |
| 2026-04-29 05:42 | 50.00753 | 8.37440 | 1975 ft | 209 kts | 70° |
| 2026-04-29 05:42 | 50.01255 | 8.39519 | 1710 ft | 195 kts | 70° |
| 2026-04-29 05:42 | 50.01687 | 8.41322 | 1457 ft | 191 kts | 70° |
| 2026-04-29 05:43 | 50.02149 | 8.43241 | 1218 ft | 171 kts | 70° |
| 2026-04-29 05:43 | 50.02303 | 8.43884 | 1117 ft | 171 kts | 70° |
| 2026-04-29 05:43 | 50.02511 | 8.44750 | 1014 ft | 170 kts | 70° |
| 2026-04-29 05:43 | 50.02782 | 8.45873 | 847 ft | 164 kts | 70° |
| 2026-04-29 05:44 | 50.02996 | 8.46764 | 737 ft | 161 kts | 70° |
| 2026-04-29 05:44 | 50.03271 | 8.47911 | 589 ft | 159 kts | 70° |
| 2026-04-29 05:44 | 50.03572 | 8.49166 | 510 ft | 155 kts | 70° |
| 2026-04-29 05:44 | 50.03800 | 8.50109 | 420 ft | 130 kts | 70° |
| 2026-04-29 05:45 | 50.03920 | 8.50603 | 363 ft | 121 kts | 69° |
| 2026-04-29 05:45 | 50.03986 | 8.50880 | 362 ft | 113 kts | 70° |
| 2026-04-29 05:45 | 50.04088 | 8.51312 | 363 ft | 101 kts | 70° |